<?xml version="1.0" encoding="UTF-8" standalone="no" ?>
<gpx xmlns="http://www.topografix.com/GPX/1/1" xmlns:xsi="http://www.w3.org/2001/XMLSchema-instance" xsi:schemaLocation="http://www.topografix.com/GPX/1/1 http://www.topografix.com/GPX/1/1/gpx.xsd" version="1.1" creator="VisuGPX - https://www.visugpx.com">
  <metadata>
    <name>12149209-Test 50 k</name>
  </metadata>
  <trk>
    <name><![CDATA[12149209-Test 50 k]]></name>
    <extensions>
      <line xmlns="http://www.topografix.com/GPX/gpx_style/0/2">
        <color>0000FF</color>
        <width>4</width>
      </line>
    </extensions>
    <trkseg>
      <trkpt lat="43.54604" lon="1.14525">
        <ele>228</ele>
        <time>2020-10-17T10:01:36Z</time>
      </trkpt>
      <trkpt lat="43.54604" lon="1.14525">
        <ele>228</ele>
        <time>2020-10-17T10:01:36Z</time>
      </trkpt>
      <trkpt lat="43.54604" lon="1.14525">
        <ele>228</ele>
        <time>2020-10-17T10:01:36Z</time>
      </trkpt>
      <trkpt lat="43.54606" lon="1.14523">
        <ele>228</ele>
        <time>2020-10-17T10:01:38Z</time>
      </trkpt>
      <trkpt lat="43.54634" lon="1.14558">
        <ele>225</ele>
        <time>2020-10-17T10:02:08Z</time>
      </trkpt>
      <trkpt lat="43.54646" lon="1.14579">
        <ele>224</ele>
        <time>2020-10-17T10:02:24Z</time>
      </trkpt>
      <trkpt lat="43.54659" lon="1.14609">
        <ele>223</ele>
        <time>2020-10-17T10:02:44Z</time>
      </trkpt>
      <trkpt lat="43.54671" lon="1.14676">
        <ele>223</ele>
        <time>2020-10-17T10:03:24Z</time>
      </trkpt>
      <trkpt lat="43.54688" lon="1.14789">
        <ele>222</ele>
        <time>2020-10-17T10:04:31Z</time>
      </trkpt>
      <trkpt lat="43.54686" lon="1.14808">
        <ele>222</ele>
        <time>2020-10-17T10:04:42Z</time>
      </trkpt>
      <trkpt lat="43.54679" lon="1.14824">
        <ele>223</ele>
        <time>2020-10-17T10:04:53Z</time>
      </trkpt>
      <trkpt lat="43.54646" lon="1.14883">
        <ele>224</ele>
        <time>2020-10-17T10:05:36Z</time>
      </trkpt>
      <trkpt lat="43.54683" lon="1.1491">
        <ele>223</ele>
        <time>2020-10-17T10:06:10Z</time>
      </trkpt>
      <trkpt lat="43.54723" lon="1.14929">
        <ele>220</ele>
        <time>2020-10-17T10:06:44Z</time>
      </trkpt>
      <trkpt lat="43.5475" lon="1.14935">
        <ele>218</ele>
        <time>2020-10-17T10:07:06Z</time>
      </trkpt>
      <trkpt lat="43.54765" lon="1.14941">
        <ele>217</ele>
        <time>2020-10-17T10:07:18Z</time>
      </trkpt>
      <trkpt lat="43.54908" lon="1.15007">
        <ele>220</ele>
        <time>2020-10-17T10:09:19Z</time>
      </trkpt>
      <trkpt lat="43.54941" lon="1.15026">
        <ele>220</ele>
        <time>2020-10-17T10:09:47Z</time>
      </trkpt>
      <trkpt lat="43.54946" lon="1.15032">
        <ele>220</ele>
        <time>2020-10-17T10:09:53Z</time>
      </trkpt>
      <trkpt lat="43.55016" lon="1.15078">
        <ele>219</ele>
        <time>2020-10-17T10:10:55Z</time>
      </trkpt>
      <trkpt lat="43.55161" lon="1.15195">
        <ele>222</ele>
        <time>2020-10-17T10:13:09Z</time>
      </trkpt>
      <trkpt lat="43.55166" lon="1.15201">
        <ele>222</ele>
        <time>2020-10-17T10:13:15Z</time>
      </trkpt>
      <trkpt lat="43.55421" lon="1.15131">
        <ele>239</ele>
        <time>2020-10-17T10:16:43Z</time>
      </trkpt>
      <trkpt lat="43.55529" lon="1.15094">
        <ele>250</ele>
        <time>2020-10-17T10:18:12Z</time>
      </trkpt>
      <trkpt lat="43.55595" lon="1.15079">
        <ele>259</ele>
        <time>2020-10-17T10:19:05Z</time>
      </trkpt>
      <trkpt lat="43.55682" lon="1.15053">
        <ele>264</ele>
        <time>2020-10-17T10:20:17Z</time>
      </trkpt>
      <trkpt lat="43.55687" lon="1.15053">
        <ele>264</ele>
        <time>2020-10-17T10:20:21Z</time>
      </trkpt>
      <trkpt lat="43.55687" lon="1.15052">
        <ele>264</ele>
        <time>2020-10-17T10:20:21Z</time>
      </trkpt>
      <trkpt lat="43.55707" lon="1.15245">
        <ele>268</ele>
        <time>2020-10-17T10:22:14Z</time>
      </trkpt>
      <trkpt lat="43.55707" lon="1.15245">
        <ele>268</ele>
        <time>2020-10-17T10:22:15Z</time>
      </trkpt>
      <trkpt lat="43.55728" lon="1.15388">
        <ele>277</ele>
        <time>2020-10-17T10:23:39Z</time>
      </trkpt>
      <trkpt lat="43.55728" lon="1.15388">
        <ele>277</ele>
        <time>2020-10-17T10:23:39Z</time>
      </trkpt>
      <trkpt lat="43.5576" lon="1.15424">
        <ele>282</ele>
        <time>2020-10-17T10:24:12Z</time>
      </trkpt>
      <trkpt lat="43.5576" lon="1.15424">
        <ele>282</ele>
        <time>2020-10-17T10:24:12Z</time>
      </trkpt>
      <trkpt lat="43.55756" lon="1.15464">
        <ele>282</ele>
        <time>2020-10-17T10:24:36Z</time>
      </trkpt>
      <trkpt lat="43.55755" lon="1.15463">
        <ele>282</ele>
        <time>2020-10-17T10:24:37Z</time>
      </trkpt>
      <trkpt lat="43.55753" lon="1.15471">
        <ele>282</ele>
        <time>2020-10-17T10:24:42Z</time>
      </trkpt>
      <trkpt lat="43.55748" lon="1.15483">
        <ele>282</ele>
        <time>2020-10-17T10:24:50Z</time>
      </trkpt>
      <trkpt lat="43.55737" lon="1.15516">
        <ele>279</ele>
        <time>2020-10-17T10:25:11Z</time>
      </trkpt>
      <trkpt lat="43.55721" lon="1.15555">
        <ele>274</ele>
        <time>2020-10-17T10:25:37Z</time>
      </trkpt>
      <trkpt lat="43.55715" lon="1.15576">
        <ele>272</ele>
        <time>2020-10-17T10:25:50Z</time>
      </trkpt>
      <trkpt lat="43.55692" lon="1.15632">
        <ele>266</ele>
        <time>2020-10-17T10:26:27Z</time>
      </trkpt>
      <trkpt lat="43.55691" lon="1.15645">
        <ele>265</ele>
        <time>2020-10-17T10:26:35Z</time>
      </trkpt>
      <trkpt lat="43.55696" lon="1.15653">
        <ele>265</ele>
        <time>2020-10-17T10:26:41Z</time>
      </trkpt>
      <trkpt lat="43.55706" lon="1.15659">
        <ele>265</ele>
        <time>2020-10-17T10:26:50Z</time>
      </trkpt>
      <trkpt lat="43.55718" lon="1.1567">
        <ele>265</ele>
        <time>2020-10-17T10:27:01Z</time>
      </trkpt>
      <trkpt lat="43.55724" lon="1.15691">
        <ele>264</ele>
        <time>2020-10-17T10:27:14Z</time>
      </trkpt>
      <trkpt lat="43.55723" lon="1.15709">
        <ele>263</ele>
        <time>2020-10-17T10:27:25Z</time>
      </trkpt>
      <trkpt lat="43.5572" lon="1.15718">
        <ele>263</ele>
        <time>2020-10-17T10:27:30Z</time>
      </trkpt>
      <trkpt lat="43.55712" lon="1.15724">
        <ele>262</ele>
        <time>2020-10-17T10:27:38Z</time>
      </trkpt>
      <trkpt lat="43.55703" lon="1.15735">
        <ele>261</ele>
        <time>2020-10-17T10:27:47Z</time>
      </trkpt>
      <trkpt lat="43.55676" lon="1.15792">
        <ele>256</ele>
        <time>2020-10-17T10:28:27Z</time>
      </trkpt>
      <trkpt lat="43.55673" lon="1.15811">
        <ele>254</ele>
        <time>2020-10-17T10:28:38Z</time>
      </trkpt>
      <trkpt lat="43.55675" lon="1.15825">
        <ele>254</ele>
        <time>2020-10-17T10:28:46Z</time>
      </trkpt>
      <trkpt lat="43.5569" lon="1.1585">
        <ele>253</ele>
        <time>2020-10-17T10:29:05Z</time>
      </trkpt>
      <trkpt lat="43.55701" lon="1.15878">
        <ele>252</ele>
        <time>2020-10-17T10:29:24Z</time>
      </trkpt>
      <trkpt lat="43.55706" lon="1.15895">
        <ele>252</ele>
        <time>2020-10-17T10:29:34Z</time>
      </trkpt>
      <trkpt lat="43.55704" lon="1.15903">
        <ele>251</ele>
        <time>2020-10-17T10:29:39Z</time>
      </trkpt>
      <trkpt lat="43.55695" lon="1.1591">
        <ele>250</ele>
        <time>2020-10-17T10:29:48Z</time>
      </trkpt>
      <trkpt lat="43.55689" lon="1.15922">
        <ele>250</ele>
        <time>2020-10-17T10:29:56Z</time>
      </trkpt>
      <trkpt lat="43.55694" lon="1.16048">
        <ele>244</ele>
        <time>2020-10-17T10:31:09Z</time>
      </trkpt>
      <trkpt lat="43.55682" lon="1.16066">
        <ele>243</ele>
        <time>2020-10-17T10:31:23Z</time>
      </trkpt>
      <trkpt lat="43.55666" lon="1.16083">
        <ele>243</ele>
        <time>2020-10-17T10:31:40Z</time>
      </trkpt>
      <trkpt lat="43.55596" lon="1.16181">
        <ele>241</ele>
        <time>2020-10-17T10:32:59Z</time>
      </trkpt>
      <trkpt lat="43.55565" lon="1.16214">
        <ele>239</ele>
        <time>2020-10-17T10:33:31Z</time>
      </trkpt>
      <trkpt lat="43.55534" lon="1.16253">
        <ele>237</ele>
        <time>2020-10-17T10:34:04Z</time>
      </trkpt>
      <trkpt lat="43.55519" lon="1.16279">
        <ele>235</ele>
        <time>2020-10-17T10:34:24Z</time>
      </trkpt>
      <trkpt lat="43.55488" lon="1.16318">
        <ele>231</ele>
        <time>2020-10-17T10:34:57Z</time>
      </trkpt>
      <trkpt lat="43.55468" lon="1.16334">
        <ele>229</ele>
        <time>2020-10-17T10:35:16Z</time>
      </trkpt>
      <trkpt lat="43.55454" lon="1.1634">
        <ele>227</ele>
        <time>2020-10-17T10:35:28Z</time>
      </trkpt>
      <trkpt lat="43.55427" lon="1.16342">
        <ele>225</ele>
        <time>2020-10-17T10:35:49Z</time>
      </trkpt>
      <trkpt lat="43.55388" lon="1.1648">
        <ele>218</ele>
        <time>2020-10-17T10:37:15Z</time>
      </trkpt>
      <trkpt lat="43.55389" lon="1.16491">
        <ele>217</ele>
        <time>2020-10-17T10:37:22Z</time>
      </trkpt>
      <trkpt lat="43.55397" lon="1.16498">
        <ele>217</ele>
        <time>2020-10-17T10:37:29Z</time>
      </trkpt>
      <trkpt lat="43.55397" lon="1.16498">
        <ele>217.1</ele>
      </trkpt>
      <trkpt lat="43.55398" lon="1.16502">
        <ele>216.9</ele>
      </trkpt>
      <trkpt lat="43.55405" lon="1.16517">
        <ele>216.4</ele>
      </trkpt>
      <trkpt lat="43.55425" lon="1.16516">
        <ele>216.3</ele>
      </trkpt>
      <trkpt lat="43.55485" lon="1.16538">
        <ele>214.7</ele>
      </trkpt>
      <trkpt lat="43.55595" lon="1.16561">
        <ele>219.8</ele>
      </trkpt>
      <trkpt lat="43.5566" lon="1.16567">
        <ele>220</ele>
      </trkpt>
      <trkpt lat="43.55682" lon="1.16575">
        <ele>220.2</ele>
      </trkpt>
      <trkpt lat="43.55728" lon="1.16618">
        <ele>219</ele>
      </trkpt>
      <trkpt lat="43.55745" lon="1.16631">
        <ele>218.2</ele>
      </trkpt>
      <trkpt lat="43.55766" lon="1.16655">
        <ele>216.6</ele>
      </trkpt>
      <trkpt lat="43.55788" lon="1.1668">
        <ele>215.6</ele>
      </trkpt>
      <trkpt lat="43.55823" lon="1.16739">
        <ele>214.2</ele>
      </trkpt>
      <trkpt lat="43.55845" lon="1.16768">
        <ele>213.6</ele>
      </trkpt>
      <trkpt lat="43.55862" lon="1.16776">
        <ele>213.5</ele>
      </trkpt>
      <trkpt lat="43.55869" lon="1.16784">
        <ele>213.4</ele>
      </trkpt>
      <trkpt lat="43.55884" lon="1.16857">
        <ele>212</ele>
      </trkpt>
      <trkpt lat="43.55896" lon="1.16898">
        <ele>211.4</ele>
      </trkpt>
      <trkpt lat="43.55903" lon="1.16936">
        <ele>210.7</ele>
      </trkpt>
      <trkpt lat="43.55906" lon="1.16945">
        <ele>210.6</ele>
      </trkpt>
      <trkpt lat="43.55914" lon="1.16966">
        <ele>210</ele>
        <time>2020-10-17T11:06:48Z</time>
      </trkpt>
      <trkpt lat="43.55939" lon="1.16959">
        <ele>211</ele>
        <time>2020-10-17T11:07:09Z</time>
      </trkpt>
      <trkpt lat="43.55961" lon="1.1697">
        <ele>210</ele>
        <time>2020-10-17T11:07:27Z</time>
      </trkpt>
      <trkpt lat="43.56073" lon="1.16993">
        <ele>212</ele>
        <time>2020-10-17T11:08:58Z</time>
      </trkpt>
      <trkpt lat="43.56091" lon="1.16622">
        <ele>215</ele>
        <time>2020-10-17T11:12:34Z</time>
      </trkpt>
      <trkpt lat="43.561" lon="1.16503">
        <ele>221</ele>
        <time>2020-10-17T11:13:43Z</time>
      </trkpt>
      <trkpt lat="43.56128" lon="1.16317">
        <ele>223</ele>
        <time>2020-10-17T11:15:33Z</time>
      </trkpt>
      <trkpt lat="43.56136" lon="1.16164">
        <ele>226</ele>
        <time>2020-10-17T11:17:02Z</time>
      </trkpt>
      <trkpt lat="43.56136" lon="1.16089">
        <ele>226</ele>
        <time>2020-10-17T11:17:46Z</time>
      </trkpt>
      <trkpt lat="43.56356" lon="1.16121">
        <ele>219</ele>
        <time>2020-10-17T11:20:43Z</time>
      </trkpt>
      <trkpt lat="43.56424" lon="1.16129">
        <ele>218</ele>
        <time>2020-10-17T11:21:38Z</time>
      </trkpt>
      <trkpt lat="43.56559" lon="1.16186">
        <ele>216</ele>
        <time>2020-10-17T11:23:31Z</time>
      </trkpt>
      <trkpt lat="43.56511" lon="1.16467">
        <ele>213</ele>
        <time>2020-10-17T11:26:18Z</time>
      </trkpt>
      <trkpt lat="43.56504" lon="1.16594">
        <ele>211</ele>
        <time>2020-10-17T11:27:32Z</time>
      </trkpt>
      <trkpt lat="43.56526" lon="1.16596">
        <ele>212</ele>
        <time>2020-10-17T11:27:50Z</time>
      </trkpt>
      <trkpt lat="43.56592" lon="1.16614">
        <ele>216</ele>
        <time>2020-10-17T11:28:44Z</time>
      </trkpt>
      <trkpt lat="43.56612" lon="1.16623">
        <ele>216</ele>
        <time>2020-10-17T11:29:00Z</time>
      </trkpt>
      <trkpt lat="43.56653" lon="1.16634">
        <ele>217</ele>
        <time>2020-10-17T11:29:34Z</time>
      </trkpt>
      <trkpt lat="43.56674" lon="1.16637">
        <ele>218</ele>
        <time>2020-10-17T11:29:51Z</time>
      </trkpt>
      <trkpt lat="43.56694" lon="1.16633">
        <ele>219</ele>
        <time>2020-10-17T11:30:07Z</time>
      </trkpt>
      <trkpt lat="43.56703" lon="1.16626">
        <ele>219</ele>
        <time>2020-10-17T11:30:15Z</time>
      </trkpt>
      <trkpt lat="43.56722" lon="1.16637">
        <ele>220</ele>
        <time>2020-10-17T11:30:32Z</time>
      </trkpt>
      <trkpt lat="43.56734" lon="1.16649">
        <ele>221</ele>
        <time>2020-10-17T11:30:44Z</time>
      </trkpt>
      <trkpt lat="43.56763" lon="1.16654">
        <ele>222</ele>
        <time>2020-10-17T11:31:07Z</time>
      </trkpt>
      <trkpt lat="43.56781" lon="1.16649">
        <ele>223</ele>
        <time>2020-10-17T11:31:22Z</time>
      </trkpt>
      <trkpt lat="43.56786" lon="1.16651">
        <ele>223</ele>
        <time>2020-10-17T11:31:26Z</time>
      </trkpt>
      <trkpt lat="43.56796" lon="1.16647">
        <ele>224</ele>
        <time>2020-10-17T11:31:34Z</time>
      </trkpt>
      <trkpt lat="43.56806" lon="1.16652">
        <ele>224</ele>
        <time>2020-10-17T11:31:43Z</time>
      </trkpt>
      <trkpt lat="43.56821" lon="1.1665">
        <ele>225</ele>
        <time>2020-10-17T11:31:55Z</time>
      </trkpt>
      <trkpt lat="43.56851" lon="1.1665">
        <ele>227</ele>
        <time>2020-10-17T11:32:19Z</time>
      </trkpt>
      <trkpt lat="43.56894" lon="1.16645">
        <ele>231</ele>
        <time>2020-10-17T11:32:53Z</time>
      </trkpt>
      <trkpt lat="43.56949" lon="1.1665">
        <ele>237</ele>
        <time>2020-10-17T11:33:38Z</time>
      </trkpt>
      <trkpt lat="43.56989" lon="1.16661">
        <ele>240</ele>
        <time>2020-10-17T11:34:10Z</time>
      </trkpt>
      <trkpt lat="43.57025" lon="1.16668">
        <ele>241</ele>
        <time>2020-10-17T11:34:39Z</time>
      </trkpt>
      <trkpt lat="43.57026" lon="1.16668">
        <ele>242</ele>
        <time>2020-10-17T11:34:40Z</time>
      </trkpt>
      <trkpt lat="43.57046" lon="1.16662">
        <ele>242</ele>
        <time>2020-10-17T11:34:56Z</time>
      </trkpt>
      <trkpt lat="43.57045" lon="1.1666">
        <ele>243</ele>
        <time>2020-10-17T11:34:58Z</time>
      </trkpt>
      <trkpt lat="43.57072" lon="1.1663">
        <ele>246</ele>
        <time>2020-10-17T11:35:26Z</time>
      </trkpt>
      <trkpt lat="43.57073" lon="1.16631">
        <ele>246</ele>
        <time>2020-10-17T11:35:27Z</time>
      </trkpt>
      <trkpt lat="43.57078" lon="1.16581">
        <ele>251</ele>
        <time>2020-10-17T11:35:56Z</time>
      </trkpt>
      <trkpt lat="43.57087" lon="1.16558">
        <ele>251</ele>
        <time>2020-10-17T11:36:11Z</time>
      </trkpt>
      <trkpt lat="43.57102" lon="1.16541">
        <ele>252</ele>
        <time>2020-10-17T11:36:27Z</time>
      </trkpt>
      <trkpt lat="43.57114" lon="1.16521">
        <ele>253</ele>
        <time>2020-10-17T11:36:42Z</time>
      </trkpt>
      <trkpt lat="43.57132" lon="1.16512">
        <ele>254</ele>
        <time>2020-10-17T11:36:57Z</time>
      </trkpt>
      <trkpt lat="43.5716" lon="1.16485">
        <ele>258</ele>
        <time>2020-10-17T11:37:24Z</time>
      </trkpt>
      <trkpt lat="43.57211" lon="1.16452">
        <ele>263</ele>
        <time>2020-10-17T11:38:09Z</time>
      </trkpt>
      <trkpt lat="43.57235" lon="1.16413">
        <ele>269</ele>
        <time>2020-10-17T11:38:39Z</time>
      </trkpt>
      <trkpt lat="43.57252" lon="1.1641">
        <ele>271</ele>
        <time>2020-10-17T11:38:53Z</time>
      </trkpt>
      <trkpt lat="43.57286" lon="1.16389">
        <ele>275</ele>
        <time>2020-10-17T11:39:23Z</time>
      </trkpt>
      <trkpt lat="43.573" lon="1.16368">
        <ele>278</ele>
        <time>2020-10-17T11:39:39Z</time>
      </trkpt>
      <trkpt lat="43.57306" lon="1.16357">
        <ele>279</ele>
        <time>2020-10-17T11:39:47Z</time>
      </trkpt>
      <trkpt lat="43.57373" lon="1.16278">
        <ele>288</ele>
        <time>2020-10-17T11:40:58Z</time>
      </trkpt>
      <trkpt lat="43.57407" lon="1.16222">
        <ele>291</ele>
        <time>2020-10-17T11:41:40Z</time>
      </trkpt>
      <trkpt lat="43.57486" lon="1.16042">
        <ele>293</ele>
        <time>2020-10-17T11:43:42Z</time>
      </trkpt>
      <trkpt lat="43.57519" lon="1.15945">
        <ele>292</ele>
        <time>2020-10-17T11:44:44Z</time>
      </trkpt>
      <trkpt lat="43.57534" lon="1.15891">
        <ele>293</ele>
        <time>2020-10-17T11:45:18Z</time>
      </trkpt>
      <trkpt lat="43.57548" lon="1.15851">
        <ele>294</ele>
        <time>2020-10-17T11:45:44Z</time>
      </trkpt>
      <trkpt lat="43.57566" lon="1.1582">
        <ele>296</ele>
        <time>2020-10-17T11:46:07Z</time>
      </trkpt>
      <trkpt lat="43.5768" lon="1.15669">
        <ele>294</ele>
        <time>2020-10-17T11:48:13Z</time>
      </trkpt>
      <trkpt lat="43.57739" lon="1.15586">
        <ele>296</ele>
        <time>2020-10-17T11:49:21Z</time>
      </trkpt>
      <trkpt lat="43.57761" lon="1.15559">
        <ele>297</ele>
        <time>2020-10-17T11:49:44Z</time>
      </trkpt>
      <trkpt lat="43.57891" lon="1.15411">
        <ele>293</ele>
        <time>2020-10-17T11:51:59Z</time>
      </trkpt>
      <trkpt lat="43.57902" lon="1.15396">
        <ele>293</ele>
        <time>2020-10-17T11:52:12Z</time>
      </trkpt>
      <trkpt lat="43.57953" lon="1.15306">
        <ele>292</ele>
        <time>2020-10-17T11:53:18Z</time>
      </trkpt>
      <trkpt lat="43.5794" lon="1.15461">
        <ele>293</ele>
        <time>2020-10-17T11:54:48Z</time>
      </trkpt>
      <trkpt lat="43.57924" lon="1.15821">
        <ele>296</ele>
        <time>2020-10-17T11:58:18Z</time>
      </trkpt>
      <trkpt lat="43.57934" lon="1.159">
        <ele>294</ele>
        <time>2020-10-17T11:59:04Z</time>
      </trkpt>
      <trkpt lat="43.57954" lon="1.1599">
        <ele>293</ele>
        <time>2020-10-17T11:59:59Z</time>
      </trkpt>
      <trkpt lat="43.58007" lon="1.16093">
        <ele>290</ele>
        <time>2020-10-17T12:01:12Z</time>
      </trkpt>
      <trkpt lat="43.58035" lon="1.16167">
        <ele>286</ele>
        <time>2020-10-17T12:02:00Z</time>
      </trkpt>
      <trkpt lat="43.58054" lon="1.16247">
        <ele>287</ele>
        <time>2020-10-17T12:02:49Z</time>
      </trkpt>
      <trkpt lat="43.58077" lon="1.16256">
        <ele>288</ele>
        <time>2020-10-17T12:03:08Z</time>
      </trkpt>
      <trkpt lat="43.581" lon="1.16292">
        <ele>291</ele>
        <time>2020-10-17T12:03:36Z</time>
      </trkpt>
      <trkpt lat="43.58139" lon="1.16308">
        <ele>296</ele>
        <time>2020-10-17T12:04:09Z</time>
      </trkpt>
      <trkpt lat="43.58143" lon="1.16363">
        <ele>297</ele>
        <time>2020-10-17T12:04:41Z</time>
      </trkpt>
      <trkpt lat="43.58235" lon="1.16827">
        <ele>284</ele>
        <time>2020-10-17T12:09:20Z</time>
      </trkpt>
      <trkpt lat="43.58317" lon="1.17092">
        <ele>253</ele>
        <time>2020-10-17T12:12:07Z</time>
      </trkpt>
      <trkpt lat="43.58315" lon="1.17151">
        <ele>249</ele>
        <time>2020-10-17T12:12:41Z</time>
      </trkpt>
      <trkpt lat="43.5828" lon="1.17314">
        <ele>240</ele>
        <time>2020-10-17T12:14:20Z</time>
      </trkpt>
      <trkpt lat="43.58282" lon="1.17376">
        <ele>238</ele>
        <time>2020-10-17T12:14:56Z</time>
      </trkpt>
      <trkpt lat="43.58253" lon="1.1741">
        <ele>237</ele>
        <time>2020-10-17T12:15:26Z</time>
      </trkpt>
      <trkpt lat="43.58166" lon="1.17722">
        <ele>226</ele>
        <time>2020-10-17T12:18:40Z</time>
      </trkpt>
      <trkpt lat="43.58148" lon="1.17834">
        <ele>225</ele>
        <time>2020-10-17T12:19:47Z</time>
      </trkpt>
      <trkpt lat="43.58185" lon="1.17857">
        <ele>223</ele>
        <time>2020-10-17T12:20:19Z</time>
      </trkpt>
      <trkpt lat="43.58208" lon="1.17886">
        <ele>222</ele>
        <time>2020-10-17T12:20:44Z</time>
      </trkpt>
      <trkpt lat="43.58203" lon="1.17898">
        <ele>221</ele>
        <time>2020-10-17T12:20:52Z</time>
      </trkpt>
      <trkpt lat="43.58417" lon="1.17962">
        <ele>218</ele>
        <time>2020-10-17T12:23:48Z</time>
      </trkpt>
      <trkpt lat="43.58476" lon="1.17982">
        <ele>220</ele>
        <time>2020-10-17T12:24:36Z</time>
      </trkpt>
      <trkpt lat="43.58681" lon="1.18061">
        <ele>219</ele>
        <time>2020-10-17T12:27:27Z</time>
      </trkpt>
      <trkpt lat="43.58842" lon="1.1808">
        <ele>218</ele>
        <time>2020-10-17T12:29:36Z</time>
      </trkpt>
      <trkpt lat="43.58875" lon="1.18079">
        <ele>218</ele>
        <time>2020-10-17T12:30:02Z</time>
      </trkpt>
      <trkpt lat="43.58902" lon="1.18082">
        <ele>217</ele>
        <time>2020-10-17T12:30:24Z</time>
      </trkpt>
      <trkpt lat="43.5888" lon="1.18133">
        <ele>216</ele>
        <time>2020-10-17T12:30:59Z</time>
      </trkpt>
      <trkpt lat="43.58833" lon="1.18265">
        <ele>214</ele>
        <time>2020-10-17T12:32:24Z</time>
      </trkpt>
      <trkpt lat="43.588" lon="1.18366">
        <ele>216</ele>
        <time>2020-10-17T12:33:28Z</time>
      </trkpt>
      <trkpt lat="43.58753" lon="1.18548">
        <ele>212</ele>
        <time>2020-10-17T12:35:20Z</time>
      </trkpt>
      <trkpt lat="43.58893" lon="1.18587">
        <ele>212</ele>
        <time>2020-10-17T12:37:15Z</time>
      </trkpt>
      <trkpt lat="43.58981" lon="1.18603">
        <ele>214</ele>
        <time>2020-10-17T12:38:26Z</time>
      </trkpt>
      <trkpt lat="43.59127" lon="1.18645">
        <ele>210</ele>
        <time>2020-10-17T12:40:25Z</time>
      </trkpt>
      <trkpt lat="43.59169" lon="1.18653">
        <ele>211</ele>
        <time>2020-10-17T12:40:59Z</time>
      </trkpt>
      <trkpt lat="43.59195" lon="1.18649">
        <ele>211</ele>
        <time>2020-10-17T12:41:20Z</time>
      </trkpt>
      <trkpt lat="43.59283" lon="1.18628">
        <ele>216</ele>
        <time>2020-10-17T12:42:31Z</time>
      </trkpt>
      <trkpt lat="43.5931" lon="1.18615">
        <ele>219</ele>
        <time>2020-10-17T12:42:54Z</time>
      </trkpt>
      <trkpt lat="43.59325" lon="1.18601">
        <ele>221</ele>
        <time>2020-10-17T12:43:09Z</time>
      </trkpt>
      <trkpt lat="43.5935" lon="1.18582">
        <ele>225</ele>
        <time>2020-10-17T12:43:32Z</time>
      </trkpt>
      <trkpt lat="43.59458" lon="1.18544">
        <ele>239</ele>
        <time>2020-10-17T12:45:01Z</time>
      </trkpt>
      <trkpt lat="43.5946" lon="1.1855">
        <ele>239</ele>
        <time>2020-10-17T12:45:05Z</time>
      </trkpt>
      <trkpt lat="43.59502" lon="1.18552">
        <ele>243</ele>
        <time>2020-10-17T12:45:38Z</time>
      </trkpt>
      <trkpt lat="43.59619" lon="1.18449">
        <ele>246</ele>
        <time>2020-10-17T12:47:29Z</time>
      </trkpt>
      <trkpt lat="43.59688" lon="1.18422">
        <ele>250</ele>
        <time>2020-10-17T12:48:27Z</time>
      </trkpt>
      <trkpt lat="43.59708" lon="1.18428">
        <ele>252</ele>
        <time>2020-10-17T12:48:43Z</time>
      </trkpt>
      <trkpt lat="43.59708" lon="1.18428">
        <ele>252.1</ele>
      </trkpt>
      <trkpt lat="43.59752" lon="1.18443">
        <ele>256.4</ele>
      </trkpt>
      <trkpt lat="43.59807" lon="1.1843">
        <ele>259.2</ele>
      </trkpt>
      <trkpt lat="43.59944" lon="1.18397">
        <ele>263.2</ele>
      </trkpt>
      <trkpt lat="43.59944" lon="1.18397">
        <ele>263.2</ele>
      </trkpt>
      <trkpt lat="43.60015" lon="1.18413">
        <ele>261.6</ele>
      </trkpt>
      <trkpt lat="43.60271" lon="1.18625">
        <ele>252.8</ele>
      </trkpt>
      <trkpt lat="43.60307" lon="1.18654">
        <ele>254.1</ele>
      </trkpt>
      <trkpt lat="43.60357" lon="1.18693">
        <ele>256.3</ele>
      </trkpt>
      <trkpt lat="43.6038" lon="1.18639">
        <ele>259</ele>
      </trkpt>
      <trkpt lat="43.60463" lon="1.18447">
        <ele>272.9</ele>
      </trkpt>
      <trkpt lat="43.60579" lon="1.18178">
        <ele>285.2</ele>
      </trkpt>
      <trkpt lat="43.60606" lon="1.18114">
        <ele>285.8</ele>
      </trkpt>
      <trkpt lat="43.60613" lon="1.18108">
        <ele>285.7</ele>
      </trkpt>
      <trkpt lat="43.60615" lon="1.18085">
        <ele>286.4</ele>
      </trkpt>
      <trkpt lat="43.60614" lon="1.18077">
        <ele>286.5</ele>
      </trkpt>
      <trkpt lat="43.60609" lon="1.18044">
        <ele>286.4</ele>
      </trkpt>
      <trkpt lat="43.60602" lon="1.18015">
        <ele>286.5</ele>
      </trkpt>
      <trkpt lat="43.60599" lon="1.17988">
        <ele>286.3</ele>
      </trkpt>
      <trkpt lat="43.60598" lon="1.17965">
        <ele>286.2</ele>
      </trkpt>
      <trkpt lat="43.60586" lon="1.17938">
        <ele>286.2</ele>
      </trkpt>
      <trkpt lat="43.6057" lon="1.17926">
        <ele>286</ele>
      </trkpt>
      <trkpt lat="43.60566" lon="1.17909">
        <ele>285.9</ele>
      </trkpt>
      <trkpt lat="43.60556" lon="1.1784">
        <ele>286.6</ele>
      </trkpt>
      <trkpt lat="43.60541" lon="1.17785">
        <ele>285.9</ele>
      </trkpt>
      <trkpt lat="43.60536" lon="1.17759">
        <ele>285.5</ele>
      </trkpt>
      <trkpt lat="43.60529" lon="1.17746">
        <ele>285.4</ele>
      </trkpt>
      <trkpt lat="43.60511" lon="1.17692">
        <ele>286.3</ele>
      </trkpt>
      <trkpt lat="43.60492" lon="1.17622">
        <ele>285.8</ele>
      </trkpt>
      <trkpt lat="43.60477" lon="1.1758">
        <ele>284.7</ele>
      </trkpt>
      <trkpt lat="43.60507" lon="1.17563">
        <ele>284.8</ele>
      </trkpt>
      <trkpt lat="43.60524" lon="1.17552">
        <ele>284.8</ele>
      </trkpt>
      <trkpt lat="43.60539" lon="1.17545">
        <ele>284.8</ele>
      </trkpt>
      <trkpt lat="43.60571" lon="1.17531">
        <ele>284.7</ele>
      </trkpt>
      <trkpt lat="43.60706" lon="1.17456">
        <ele>282.9</ele>
      </trkpt>
      <trkpt lat="43.6077" lon="1.17419">
        <ele>279.4</ele>
      </trkpt>
      <trkpt lat="43.60831" lon="1.17386">
        <ele>271.6</ele>
      </trkpt>
      <trkpt lat="43.60856" lon="1.17366">
        <ele>267.9</ele>
      </trkpt>
      <trkpt lat="43.60801" lon="1.17324">
        <ele>269.2</ele>
      </trkpt>
      <trkpt lat="43.60799" lon="1.17322">
        <ele>269.3</ele>
      </trkpt>
      <trkpt lat="43.6074" lon="1.17291">
        <ele>272.1</ele>
      </trkpt>
      <trkpt lat="43.60731" lon="1.1728">
        <ele>272.4</ele>
      </trkpt>
      <trkpt lat="43.60721" lon="1.17244">
        <ele>272.6</ele>
      </trkpt>
      <trkpt lat="43.60702" lon="1.17215">
        <ele>274.8</ele>
      </trkpt>
      <trkpt lat="43.6069" lon="1.17149">
        <ele>275.7</ele>
      </trkpt>
      <trkpt lat="43.6068" lon="1.17133">
        <ele>275.4</ele>
      </trkpt>
      <trkpt lat="43.60669" lon="1.17109">
        <ele>274.5</ele>
      </trkpt>
      <trkpt lat="43.60668" lon="1.17095">
        <ele>273.7</ele>
      </trkpt>
      <trkpt lat="43.60641" lon="1.17017">
        <ele>275.3</ele>
      </trkpt>
      <trkpt lat="43.60637" lon="1.16991">
        <ele>275.6</ele>
      </trkpt>
      <trkpt lat="43.60627" lon="1.16966">
        <ele>276.6</ele>
      </trkpt>
      <trkpt lat="43.60632" lon="1.16937">
        <ele>276</ele>
      </trkpt>
      <trkpt lat="43.60624" lon="1.16902">
        <ele>276.3</ele>
      </trkpt>
      <trkpt lat="43.60589" lon="1.16846">
        <ele>277.2</ele>
      </trkpt>
      <trkpt lat="43.60573" lon="1.16801">
        <ele>276.5</ele>
      </trkpt>
      <trkpt lat="43.60556" lon="1.16772">
        <ele>276.5</ele>
      </trkpt>
      <trkpt lat="43.60546" lon="1.16757">
        <ele>276.5</ele>
      </trkpt>
      <trkpt lat="43.60516" lon="1.16729">
        <ele>278</ele>
      </trkpt>
      <trkpt lat="43.60496" lon="1.16702">
        <ele>279.4</ele>
      </trkpt>
      <trkpt lat="43.60487" lon="1.1669">
        <ele>280.4</ele>
      </trkpt>
      <trkpt lat="43.6047" lon="1.16668">
        <ele>282.2</ele>
      </trkpt>
      <trkpt lat="43.60443" lon="1.16645">
        <ele>284.8</ele>
      </trkpt>
      <trkpt lat="43.60418" lon="1.16639">
        <ele>287.5</ele>
      </trkpt>
      <trkpt lat="43.60395" lon="1.16547">
        <ele>286.6</ele>
      </trkpt>
      <trkpt lat="43.60394" lon="1.16541">
        <ele>286.6</ele>
      </trkpt>
      <trkpt lat="43.60383" lon="1.16474">
        <ele>286.8</ele>
      </trkpt>
      <trkpt lat="43.6036" lon="1.1643">
        <ele>289.1</ele>
      </trkpt>
      <trkpt lat="43.60312" lon="1.16354">
        <ele>293.2</ele>
      </trkpt>
      <trkpt lat="43.60287" lon="1.16315">
        <ele>295.4</ele>
      </trkpt>
      <trkpt lat="43.60222" lon="1.16287">
        <ele>298.3</ele>
      </trkpt>
      <trkpt lat="43.60175" lon="1.16326">
        <ele>300.3</ele>
      </trkpt>
      <trkpt lat="43.60163" lon="1.16322">
        <ele>300.1</ele>
      </trkpt>
      <trkpt lat="43.60142" lon="1.16293">
        <ele>296.6</ele>
      </trkpt>
      <trkpt lat="43.60114" lon="1.16293">
        <ele>293.7</ele>
      </trkpt>
      <trkpt lat="43.60114" lon="1.16221">
        <ele>290.9</ele>
      </trkpt>
      <trkpt lat="43.60115" lon="1.16217">
        <ele>290.9</ele>
      </trkpt>
      <trkpt lat="43.60121" lon="1.16181">
        <ele>290.7</ele>
      </trkpt>
      <trkpt lat="43.60129" lon="1.16133">
        <ele>291</ele>
        <time>2020-10-17T13:13:06Z</time>
      </trkpt>
      <trkpt lat="43.60189" lon="1.15952">
        <ele>292</ele>
        <time>2020-10-17T13:15:02Z</time>
      </trkpt>
      <trkpt lat="43.60251" lon="1.15841">
        <ele>293</ele>
        <time>2020-10-17T13:16:23Z</time>
      </trkpt>
      <trkpt lat="43.60274" lon="1.15772">
        <ele>292</ele>
        <time>2020-10-17T13:17:07Z</time>
      </trkpt>
      <trkpt lat="43.60308" lon="1.1564">
        <ele>292</ele>
        <time>2020-10-17T13:18:28Z</time>
      </trkpt>
      <trkpt lat="43.60333" lon="1.15502">
        <ele>296</ele>
        <time>2020-10-17T13:19:51Z</time>
      </trkpt>
      <trkpt lat="43.60326" lon="1.15493">
        <ele>296</ele>
        <time>2020-10-17T13:19:58Z</time>
      </trkpt>
      <trkpt lat="43.60331" lon="1.15458">
        <ele>295</ele>
        <time>2020-10-17T13:20:19Z</time>
      </trkpt>
      <trkpt lat="43.60335" lon="1.15438">
        <ele>295</ele>
        <time>2020-10-17T13:20:31Z</time>
      </trkpt>
      <trkpt lat="43.60349" lon="1.15393">
        <ele>292</ele>
        <time>2020-10-17T13:20:59Z</time>
      </trkpt>
      <trkpt lat="43.60403" lon="1.15323">
        <ele>286</ele>
        <time>2020-10-17T13:21:59Z</time>
      </trkpt>
      <trkpt lat="43.60417" lon="1.15299">
        <ele>284</ele>
        <time>2020-10-17T13:22:17Z</time>
      </trkpt>
      <trkpt lat="43.60455" lon="1.15233">
        <ele>272</ele>
        <time>2020-10-17T13:23:05Z</time>
      </trkpt>
      <trkpt lat="43.60536" lon="1.151">
        <ele>263</ele>
        <time>2020-10-17T13:24:46Z</time>
      </trkpt>
      <trkpt lat="43.60597" lon="1.14954">
        <ele>249</ele>
        <time>2020-10-17T13:26:24Z</time>
      </trkpt>
      <trkpt lat="43.60628" lon="1.14893">
        <ele>242</ele>
        <time>2020-10-17T13:27:07Z</time>
      </trkpt>
      <trkpt lat="43.60681" lon="1.14775">
        <ele>235</ele>
        <time>2020-10-17T13:28:28Z</time>
      </trkpt>
      <trkpt lat="43.60708" lon="1.14742">
        <ele>231</ele>
        <time>2020-10-17T13:28:56Z</time>
      </trkpt>
      <trkpt lat="43.60853" lon="1.14661">
        <ele>221</ele>
        <time>2020-10-17T13:31:02Z</time>
      </trkpt>
      <trkpt lat="43.60952" lon="1.14573">
        <ele>215</ele>
        <time>2020-10-17T13:32:36Z</time>
      </trkpt>
      <trkpt lat="43.61073" lon="1.14479">
        <ele>206</ele>
        <time>2020-10-17T13:34:27Z</time>
      </trkpt>
      <trkpt lat="43.61093" lon="1.1446">
        <ele>204</ele>
        <time>2020-10-17T13:34:47Z</time>
      </trkpt>
      <trkpt lat="43.61126" lon="1.14413">
        <ele>201</ele>
        <time>2020-10-17T13:35:25Z</time>
      </trkpt>
      <trkpt lat="43.61133" lon="1.14404">
        <ele>200</ele>
        <time>2020-10-17T13:35:32Z</time>
      </trkpt>
      <trkpt lat="43.6117" lon="1.14339">
        <ele>194</ele>
        <time>2020-10-17T13:36:20Z</time>
      </trkpt>
      <trkpt lat="43.61172" lon="1.14334">
        <ele>194</ele>
        <time>2020-10-17T13:36:23Z</time>
      </trkpt>
      <trkpt lat="43.61184" lon="1.14303">
        <ele>191</ele>
        <time>2020-10-17T13:36:44Z</time>
      </trkpt>
      <trkpt lat="43.6119" lon="1.14276">
        <ele>189</ele>
        <time>2020-10-17T13:37:00Z</time>
      </trkpt>
      <trkpt lat="43.61193" lon="1.14237">
        <ele>187</ele>
        <time>2020-10-17T13:37:23Z</time>
      </trkpt>
      <trkpt lat="43.6119" lon="1.14175">
        <ele>185</ele>
        <time>2020-10-17T13:37:59Z</time>
      </trkpt>
      <trkpt lat="43.61192" lon="1.14147">
        <ele>184</ele>
        <time>2020-10-17T13:38:15Z</time>
      </trkpt>
      <trkpt lat="43.61199" lon="1.14116">
        <ele>183</ele>
        <time>2020-10-17T13:38:34Z</time>
      </trkpt>
      <trkpt lat="43.61227" lon="1.14075">
        <ele>182</ele>
        <time>2020-10-17T13:39:07Z</time>
      </trkpt>
      <trkpt lat="43.61233" lon="1.1406">
        <ele>181</ele>
        <time>2020-10-17T13:39:17Z</time>
      </trkpt>
      <trkpt lat="43.61236" lon="1.14044">
        <ele>181</ele>
        <time>2020-10-17T13:39:26Z</time>
      </trkpt>
      <trkpt lat="43.61267" lon="1.13924">
        <ele>185</ele>
        <time>2020-10-17T13:40:40Z</time>
      </trkpt>
      <trkpt lat="43.61279" lon="1.13887">
        <ele>188</ele>
        <time>2020-10-17T13:41:04Z</time>
      </trkpt>
      <trkpt lat="43.61286" lon="1.13867">
        <ele>189</ele>
        <time>2020-10-17T13:41:16Z</time>
      </trkpt>
      <trkpt lat="43.61299" lon="1.1383">
        <ele>193</ele>
        <time>2020-10-17T13:41:40Z</time>
      </trkpt>
      <trkpt lat="43.61276" lon="1.13847">
        <ele>191</ele>
        <time>2020-10-17T13:42:01Z</time>
      </trkpt>
      <trkpt lat="43.61251" lon="1.13839">
        <ele>192</ele>
        <time>2020-10-17T13:42:22Z</time>
      </trkpt>
      <trkpt lat="43.61244" lon="1.13824">
        <ele>192</ele>
        <time>2020-10-17T13:42:32Z</time>
      </trkpt>
      <trkpt lat="43.61247" lon="1.13793">
        <ele>194</ele>
        <time>2020-10-17T13:42:50Z</time>
      </trkpt>
      <trkpt lat="43.61227" lon="1.13639">
        <ele>203</ele>
        <time>2020-10-17T13:44:21Z</time>
      </trkpt>
      <trkpt lat="43.61205" lon="1.13585">
        <ele>210</ele>
        <time>2020-10-17T13:44:57Z</time>
      </trkpt>
      <trkpt lat="43.61191" lon="1.13534">
        <ele>214</ele>
        <time>2020-10-17T13:45:28Z</time>
      </trkpt>
      <trkpt lat="43.61168" lon="1.13357">
        <ele>222</ele>
        <time>2020-10-17T13:47:13Z</time>
      </trkpt>
      <trkpt lat="43.61107" lon="1.13293">
        <ele>229</ele>
        <time>2020-10-17T13:48:14Z</time>
      </trkpt>
      <trkpt lat="43.611" lon="1.13194">
        <ele>236</ele>
        <time>2020-10-17T13:49:12Z</time>
      </trkpt>
      <trkpt lat="43.61117" lon="1.1302">
        <ele>241</ele>
        <time>2020-10-17T13:50:54Z</time>
      </trkpt>
      <trkpt lat="43.61101" lon="1.12884">
        <ele>239</ele>
        <time>2020-10-17T13:52:13Z</time>
      </trkpt>
      <trkpt lat="43.61065" lon="1.12778">
        <ele>240</ele>
        <time>2020-10-17T13:53:21Z</time>
      </trkpt>
      <trkpt lat="43.61064" lon="1.12738">
        <ele>241</ele>
        <time>2020-10-17T13:53:44Z</time>
      </trkpt>
      <trkpt lat="43.61057" lon="1.12717">
        <ele>241</ele>
        <time>2020-10-17T13:53:58Z</time>
      </trkpt>
      <trkpt lat="43.60985" lon="1.12642">
        <ele>246</ele>
        <time>2020-10-17T13:55:10Z</time>
      </trkpt>
      <trkpt lat="43.60976" lon="1.12589">
        <ele>246</ele>
        <time>2020-10-17T13:55:42Z</time>
      </trkpt>
      <trkpt lat="43.60973" lon="1.12514">
        <ele>246</ele>
        <time>2020-10-17T13:56:25Z</time>
      </trkpt>
      <trkpt lat="43.61023" lon="1.12196">
        <ele>244</ele>
        <time>2020-10-17T13:59:34Z</time>
      </trkpt>
      <trkpt lat="43.6104" lon="1.12061">
        <ele>242</ele>
        <time>2020-10-17T14:00:53Z</time>
      </trkpt>
      <trkpt lat="43.61099" lon="1.11912">
        <ele>237</ele>
        <time>2020-10-17T14:02:32Z</time>
      </trkpt>
      <trkpt lat="43.6117" lon="1.1159">
        <ele>228</ele>
        <time>2020-10-17T14:05:47Z</time>
      </trkpt>
      <trkpt lat="43.61195" lon="1.11493">
        <ele>222</ele>
        <time>2020-10-17T14:06:47Z</time>
      </trkpt>
      <trkpt lat="43.61236" lon="1.11336">
        <ele>214</ele>
        <time>2020-10-17T14:08:23Z</time>
      </trkpt>
      <trkpt lat="43.61311" lon="1.11076">
        <ele>206</ele>
        <time>2020-10-17T14:11:06Z</time>
      </trkpt>
      <trkpt lat="43.61383" lon="1.1095">
        <ele>204</ele>
        <time>2020-10-17T14:12:39Z</time>
      </trkpt>
      <trkpt lat="43.61385" lon="1.1084">
        <ele>203</ele>
        <time>2020-10-17T14:13:42Z</time>
      </trkpt>
      <trkpt lat="43.61412" lon="1.10763">
        <ele>200</ele>
        <time>2020-10-17T14:14:32Z</time>
      </trkpt>
      <trkpt lat="43.61424" lon="1.10628">
        <ele>194</ele>
        <time>2020-10-17T14:15:51Z</time>
      </trkpt>
      <trkpt lat="43.6152" lon="1.10433">
        <ele>186</ele>
        <time>2020-10-17T14:18:08Z</time>
      </trkpt>
      <trkpt lat="43.61549" lon="1.10314">
        <ele>182</ele>
        <time>2020-10-17T14:19:20Z</time>
      </trkpt>
      <trkpt lat="43.61606" lon="1.10158">
        <ele>175</ele>
        <time>2020-10-17T14:21:02Z</time>
      </trkpt>
      <trkpt lat="43.61659" lon="1.09987">
        <ele>165</ele>
        <time>2020-10-17T14:22:49Z</time>
      </trkpt>
      <trkpt lat="43.61737" lon="1.09827">
        <ele>157</ele>
        <time>2020-10-17T14:24:41Z</time>
      </trkpt>
      <trkpt lat="43.61803" lon="1.0972">
        <ele>155</ele>
        <time>2020-10-17T14:26:03Z</time>
      </trkpt>
      <trkpt lat="43.6181" lon="1.09704">
        <ele>155</ele>
        <time>2020-10-17T14:26:14Z</time>
      </trkpt>
      <trkpt lat="43.61811" lon="1.09692">
        <ele>154</ele>
        <time>2020-10-17T14:26:21Z</time>
      </trkpt>
      <trkpt lat="43.61808" lon="1.0965">
        <ele>153</ele>
        <time>2020-10-17T14:26:45Z</time>
      </trkpt>
      <trkpt lat="43.61813" lon="1.09632">
        <ele>153</ele>
        <time>2020-10-17T14:26:56Z</time>
      </trkpt>
      <trkpt lat="43.61821" lon="1.09611">
        <ele>153</ele>
        <time>2020-10-17T14:27:10Z</time>
      </trkpt>
      <trkpt lat="43.61818" lon="1.09604">
        <ele>153</ele>
        <time>2020-10-17T14:27:15Z</time>
      </trkpt>
      <trkpt lat="43.61818" lon="1.09595">
        <ele>153</ele>
        <time>2020-10-17T14:27:20Z</time>
      </trkpt>
      <trkpt lat="43.6182" lon="1.09589">
        <ele>153</ele>
        <time>2020-10-17T14:27:24Z</time>
      </trkpt>
      <trkpt lat="43.61827" lon="1.09584">
        <ele>153</ele>
        <time>2020-10-17T14:27:30Z</time>
      </trkpt>
      <trkpt lat="43.61835" lon="1.09587">
        <ele>153</ele>
        <time>2020-10-17T14:27:37Z</time>
      </trkpt>
      <trkpt lat="43.61836" lon="1.09583">
        <ele>153</ele>
        <time>2020-10-17T14:27:39Z</time>
      </trkpt>
      <trkpt lat="43.6184" lon="1.09574">
        <ele>153</ele>
        <time>2020-10-17T14:27:45Z</time>
      </trkpt>
      <trkpt lat="43.61851" lon="1.09525">
        <ele>151</ele>
        <time>2020-10-17T14:28:15Z</time>
      </trkpt>
      <trkpt lat="43.61855" lon="1.09514">
        <ele>151</ele>
        <time>2020-10-17T14:28:22Z</time>
      </trkpt>
      <trkpt lat="43.61861" lon="1.09505">
        <ele>150</ele>
        <time>2020-10-17T14:28:29Z</time>
      </trkpt>
      <trkpt lat="43.61871" lon="1.09495">
        <ele>150</ele>
        <time>2020-10-17T14:28:39Z</time>
      </trkpt>
      <trkpt lat="43.61906" lon="1.09468">
        <ele>150</ele>
        <time>2020-10-17T14:29:11Z</time>
      </trkpt>
      <trkpt lat="43.61925" lon="1.09474">
        <ele>150</ele>
        <time>2020-10-17T14:29:27Z</time>
      </trkpt>
      <trkpt lat="43.61973" lon="1.09526">
        <ele>151</ele>
        <time>2020-10-17T14:30:16Z</time>
      </trkpt>
      <trkpt lat="43.62045" lon="1.09605">
        <ele>150</ele>
        <time>2020-10-17T14:31:29Z</time>
      </trkpt>
      <trkpt lat="43.62108" lon="1.09673">
        <ele>150</ele>
        <time>2020-10-17T14:32:33Z</time>
      </trkpt>
      <trkpt lat="43.62187" lon="1.09601">
        <ele>150</ele>
        <time>2020-10-17T14:33:49Z</time>
      </trkpt>
      <trkpt lat="43.62257" lon="1.09531">
        <ele>147</ele>
        <time>2020-10-17T14:34:58Z</time>
      </trkpt>
      <trkpt lat="43.62275" lon="1.09505">
        <ele>145</ele>
        <time>2020-10-17T14:35:19Z</time>
      </trkpt>
      <trkpt lat="43.62307" lon="1.09472">
        <ele>143</ele>
        <time>2020-10-17T14:35:51Z</time>
      </trkpt>
      <trkpt lat="43.6233" lon="1.09449">
        <ele>141</ele>
        <time>2020-10-17T14:36:14Z</time>
      </trkpt>
      <trkpt lat="43.62371" lon="1.09417">
        <ele>140</ele>
        <time>2020-10-17T14:36:52Z</time>
      </trkpt>
      <trkpt lat="43.62372" lon="1.09412">
        <ele>140</ele>
        <time>2020-10-17T14:36:55Z</time>
      </trkpt>
      <trkpt lat="43.62373" lon="1.09406">
        <ele>140</ele>
        <time>2020-10-17T14:36:58Z</time>
      </trkpt>
      <trkpt lat="43.62373" lon="1.09396">
        <ele>140</ele>
        <time>2020-10-17T14:37:04Z</time>
      </trkpt>
      <trkpt lat="43.62341" lon="1.08716">
        <ele>143</ele>
        <time>2020-10-17T14:43:39Z</time>
      </trkpt>
      <trkpt lat="43.62336" lon="1.08688">
        <ele>144</ele>
        <time>2020-10-17T14:43:56Z</time>
      </trkpt>
      <trkpt lat="43.62314" lon="1.08582">
        <ele>143</ele>
        <time>2020-10-17T14:44:59Z</time>
      </trkpt>
      <trkpt lat="43.6231" lon="1.08573">
        <ele>143</ele>
        <time>2020-10-17T14:45:06Z</time>
      </trkpt>
      <trkpt lat="43.62293" lon="1.08533">
        <ele>142</ele>
        <time>2020-10-17T14:45:32Z</time>
      </trkpt>
      <trkpt lat="43.62282" lon="1.08507">
        <ele>142</ele>
        <time>2020-10-17T14:45:50Z</time>
      </trkpt>
      <trkpt lat="43.62249" lon="1.08478">
        <ele>141</ele>
        <time>2020-10-17T14:46:21Z</time>
      </trkpt>
      <trkpt lat="43.62198" lon="1.08463">
        <ele>141</ele>
        <time>2020-10-17T14:47:03Z</time>
      </trkpt>
      <trkpt lat="43.62049" lon="1.08339">
        <ele>139</ele>
        <time>2020-10-17T14:49:22Z</time>
      </trkpt>
      <trkpt lat="43.61929" lon="1.08176">
        <ele>140</ele>
        <time>2020-10-17T14:51:37Z</time>
      </trkpt>
      <trkpt lat="43.61904" lon="1.08142">
        <ele>141</ele>
        <time>2020-10-17T14:52:05Z</time>
      </trkpt>
      <trkpt lat="43.61894" lon="1.08133">
        <ele>141</ele>
        <time>2020-10-17T14:52:15Z</time>
      </trkpt>
      <trkpt lat="43.61905" lon="1.08114">
        <ele>142</ele>
        <time>2020-10-17T14:52:29Z</time>
      </trkpt>
      <trkpt lat="43.61911" lon="1.08092">
        <ele>143</ele>
        <time>2020-10-17T14:52:42Z</time>
      </trkpt>
      <trkpt lat="43.61928" lon="1.08083">
        <ele>143</ele>
        <time>2020-10-17T14:52:57Z</time>
      </trkpt>
      <trkpt lat="43.61996" lon="1.08002">
        <ele>146</ele>
        <time>2020-10-17T14:54:09Z</time>
      </trkpt>
      <trkpt lat="43.62002" lon="1.07974">
        <ele>145</ele>
        <time>2020-10-17T14:54:26Z</time>
      </trkpt>
      <trkpt lat="43.62008" lon="1.07948">
        <ele>143</ele>
        <time>2020-10-17T14:54:42Z</time>
      </trkpt>
      <trkpt lat="43.61882" lon="1.07915">
        <ele>144</ele>
        <time>2020-10-17T14:56:24Z</time>
      </trkpt>
      <trkpt lat="43.61873" lon="1.07909">
        <ele>144</ele>
        <time>2020-10-17T14:56:32Z</time>
      </trkpt>
      <trkpt lat="43.61854" lon="1.07892">
        <ele>144</ele>
        <time>2020-10-17T14:56:50Z</time>
      </trkpt>
      <trkpt lat="43.61744" lon="1.07772">
        <ele>145</ele>
        <time>2020-10-17T14:58:43Z</time>
      </trkpt>
      <trkpt lat="43.61645" lon="1.07664">
        <ele>145</ele>
        <time>2020-10-17T15:00:24Z</time>
      </trkpt>
      <trkpt lat="43.61647" lon="1.07657">
        <ele>145</ele>
        <time>2020-10-17T15:00:28Z</time>
      </trkpt>
      <trkpt lat="43.61646" lon="1.07655">
        <ele>145</ele>
        <time>2020-10-17T15:00:29Z</time>
      </trkpt>
      <trkpt lat="43.61663" lon="1.07641">
        <ele>145</ele>
        <time>2020-10-17T15:00:45Z</time>
      </trkpt>
      <trkpt lat="43.61664" lon="1.07639">
        <ele>145</ele>
        <time>2020-10-17T15:00:47Z</time>
      </trkpt>
      <trkpt lat="43.61667" lon="1.07634">
        <ele>144</ele>
        <time>2020-10-17T15:00:50Z</time>
      </trkpt>
      <trkpt lat="43.61668" lon="1.07628">
        <ele>144</ele>
        <time>2020-10-17T15:00:54Z</time>
      </trkpt>
      <trkpt lat="43.61665" lon="1.07616">
        <ele>144</ele>
        <time>2020-10-17T15:01:01Z</time>
      </trkpt>
      <trkpt lat="43.61644" lon="1.07611">
        <ele>143</ele>
        <time>2020-10-17T15:01:18Z</time>
      </trkpt>
      <trkpt lat="43.616" lon="1.0758">
        <ele>144</ele>
        <time>2020-10-17T15:01:58Z</time>
      </trkpt>
      <trkpt lat="43.6155" lon="1.07541">
        <ele>143</ele>
        <time>2020-10-17T15:02:44Z</time>
      </trkpt>
      <trkpt lat="43.61528" lon="1.07532">
        <ele>143</ele>
        <time>2020-10-17T15:03:02Z</time>
      </trkpt>
      <trkpt lat="43.61522" lon="1.07527">
        <ele>143</ele>
        <time>2020-10-17T15:03:08Z</time>
      </trkpt>
      <trkpt lat="43.61518" lon="1.07521">
        <ele>143</ele>
        <time>2020-10-17T15:03:13Z</time>
      </trkpt>
      <trkpt lat="43.61517" lon="1.07513">
        <ele>143</ele>
        <time>2020-10-17T15:03:17Z</time>
      </trkpt>
      <trkpt lat="43.61517" lon="1.07474">
        <ele>143</ele>
        <time>2020-10-17T15:03:40Z</time>
      </trkpt>
      <trkpt lat="43.6152" lon="1.07391">
        <ele>143</ele>
        <time>2020-10-17T15:04:28Z</time>
      </trkpt>
      <trkpt lat="43.61523" lon="1.07388">
        <ele>143</ele>
        <time>2020-10-17T15:04:31Z</time>
      </trkpt>
      <trkpt lat="43.61523" lon="1.07386">
        <ele>143</ele>
        <time>2020-10-17T15:04:32Z</time>
      </trkpt>
      <trkpt lat="43.61526" lon="1.07368">
        <ele>143</ele>
        <time>2020-10-17T15:04:43Z</time>
      </trkpt>
      <trkpt lat="43.61525" lon="1.0736">
        <ele>143</ele>
        <time>2020-10-17T15:04:48Z</time>
      </trkpt>
      <trkpt lat="43.61517" lon="1.07362">
        <ele>143</ele>
        <time>2020-10-17T15:04:54Z</time>
      </trkpt>
      <trkpt lat="43.61515" lon="1.0735">
        <ele>143</ele>
        <time>2020-10-17T15:05:01Z</time>
      </trkpt>
      <trkpt lat="43.61515" lon="1.07323">
        <ele>143</ele>
        <time>2020-10-17T15:05:17Z</time>
      </trkpt>
      <trkpt lat="43.61513" lon="1.07317">
        <ele>143</ele>
        <time>2020-10-17T15:05:21Z</time>
      </trkpt>
      <trkpt lat="43.61508" lon="1.07309">
        <ele>143</ele>
        <time>2020-10-17T15:05:27Z</time>
      </trkpt>
      <trkpt lat="43.61498" lon="1.073">
        <ele>143</ele>
        <time>2020-10-17T15:05:37Z</time>
      </trkpt>
      <trkpt lat="43.61492" lon="1.07289">
        <ele>143</ele>
        <time>2020-10-17T15:05:45Z</time>
      </trkpt>
      <trkpt lat="43.61489" lon="1.07273">
        <ele>143</ele>
        <time>2020-10-17T15:05:54Z</time>
      </trkpt>
      <trkpt lat="43.61488" lon="1.0725">
        <ele>143</ele>
        <time>2020-10-17T15:06:07Z</time>
      </trkpt>
      <trkpt lat="43.61502" lon="1.07154">
        <ele>143</ele>
        <time>2020-10-17T15:07:04Z</time>
      </trkpt>
      <trkpt lat="43.61483" lon="1.07145">
        <ele>144</ele>
        <time>2020-10-17T15:07:20Z</time>
      </trkpt>
      <trkpt lat="43.61469" lon="1.07138">
        <ele>144</ele>
        <time>2020-10-17T15:07:32Z</time>
      </trkpt>
      <trkpt lat="43.61451" lon="1.07122">
        <ele>145</ele>
        <time>2020-10-17T15:07:49Z</time>
      </trkpt>
      <trkpt lat="43.61424" lon="1.07111">
        <ele>146</ele>
        <time>2020-10-17T15:08:12Z</time>
      </trkpt>
      <trkpt lat="43.61422" lon="1.07113">
        <ele>146</ele>
        <time>2020-10-17T15:08:14Z</time>
      </trkpt>
      <trkpt lat="43.61417" lon="1.07109">
        <ele>146</ele>
        <time>2020-10-17T15:08:19Z</time>
      </trkpt>
      <trkpt lat="43.614" lon="1.07086">
        <ele>147</ele>
        <time>2020-10-17T15:08:38Z</time>
      </trkpt>
      <trkpt lat="43.6135" lon="1.07047">
        <ele>146</ele>
        <time>2020-10-17T15:09:24Z</time>
      </trkpt>
      <trkpt lat="43.61332" lon="1.07031">
        <ele>146</ele>
        <time>2020-10-17T15:09:41Z</time>
      </trkpt>
      <trkpt lat="43.61311" lon="1.07023">
        <ele>145</ele>
        <time>2020-10-17T15:09:58Z</time>
      </trkpt>
      <trkpt lat="43.61303" lon="1.07022">
        <ele>145</ele>
        <time>2020-10-17T15:10:05Z</time>
      </trkpt>
      <trkpt lat="43.61284" lon="1.07025">
        <ele>144</ele>
        <time>2020-10-17T15:10:20Z</time>
      </trkpt>
      <trkpt lat="43.6127" lon="1.07025">
        <ele>144</ele>
        <time>2020-10-17T15:10:31Z</time>
      </trkpt>
      <trkpt lat="43.61265" lon="1.07027">
        <ele>144</ele>
        <time>2020-10-17T15:10:35Z</time>
      </trkpt>
      <trkpt lat="43.61261" lon="1.07033">
        <ele>144</ele>
        <time>2020-10-17T15:10:40Z</time>
      </trkpt>
      <trkpt lat="43.61259" lon="1.07039">
        <ele>144</ele>
        <time>2020-10-17T15:10:44Z</time>
      </trkpt>
      <trkpt lat="43.61257" lon="1.07052">
        <ele>144</ele>
        <time>2020-10-17T15:10:51Z</time>
      </trkpt>
      <trkpt lat="43.61249" lon="1.07074">
        <ele>145</ele>
        <time>2020-10-17T15:11:06Z</time>
      </trkpt>
      <trkpt lat="43.61246" lon="1.07101">
        <ele>145</ele>
        <time>2020-10-17T15:11:22Z</time>
      </trkpt>
      <trkpt lat="43.61247" lon="1.07145">
        <ele>144</ele>
        <time>2020-10-17T15:11:47Z</time>
      </trkpt>
      <trkpt lat="43.61238" lon="1.0719">
        <ele>144</ele>
        <time>2020-10-17T15:12:14Z</time>
      </trkpt>
      <trkpt lat="43.61232" lon="1.07204">
        <ele>144</ele>
        <time>2020-10-17T15:12:24Z</time>
      </trkpt>
      <trkpt lat="43.61227" lon="1.07212">
        <ele>144</ele>
        <time>2020-10-17T15:12:30Z</time>
      </trkpt>
      <trkpt lat="43.61218" lon="1.0722">
        <ele>144</ele>
        <time>2020-10-17T15:12:38Z</time>
      </trkpt>
      <trkpt lat="43.61205" lon="1.07225">
        <ele>144</ele>
        <time>2020-10-17T15:12:49Z</time>
      </trkpt>
      <trkpt lat="43.61194" lon="1.07228">
        <ele>144</ele>
        <time>2020-10-17T15:12:58Z</time>
      </trkpt>
      <trkpt lat="43.61171" lon="1.07229">
        <ele>144</ele>
        <time>2020-10-17T15:13:17Z</time>
      </trkpt>
      <trkpt lat="43.61158" lon="1.07226">
        <ele>144</ele>
        <time>2020-10-17T15:13:27Z</time>
      </trkpt>
      <trkpt lat="43.61138" lon="1.07214">
        <ele>144</ele>
        <time>2020-10-17T15:13:45Z</time>
      </trkpt>
      <trkpt lat="43.61123" lon="1.072">
        <ele>144</ele>
        <time>2020-10-17T15:13:59Z</time>
      </trkpt>
      <trkpt lat="43.61114" lon="1.07185">
        <ele>144</ele>
        <time>2020-10-17T15:14:10Z</time>
      </trkpt>
      <trkpt lat="43.61106" lon="1.07161">
        <ele>143</ele>
        <time>2020-10-17T15:14:26Z</time>
      </trkpt>
      <trkpt lat="43.61098" lon="1.07111">
        <ele>143</ele>
        <time>2020-10-17T15:14:55Z</time>
      </trkpt>
      <trkpt lat="43.61094" lon="1.07096">
        <ele>143</ele>
        <time>2020-10-17T15:15:05Z</time>
      </trkpt>
      <trkpt lat="43.61086" lon="1.07077">
        <ele>143</ele>
        <time>2020-10-17T15:15:17Z</time>
      </trkpt>
      <trkpt lat="43.61076" lon="1.07061">
        <ele>143</ele>
        <time>2020-10-17T15:15:30Z</time>
      </trkpt>
      <trkpt lat="43.6106" lon="1.07035">
        <ele>143</ele>
        <time>2020-10-17T15:15:49Z</time>
      </trkpt>
      <trkpt lat="43.61053" lon="1.07028">
        <ele>143</ele>
        <time>2020-10-17T15:15:56Z</time>
      </trkpt>
      <trkpt lat="43.61045" lon="1.07022">
        <ele>143</ele>
        <time>2020-10-17T15:16:04Z</time>
      </trkpt>
      <trkpt lat="43.61033" lon="1.07018">
        <ele>143</ele>
        <time>2020-10-17T15:16:13Z</time>
      </trkpt>
      <trkpt lat="43.61017" lon="1.07023">
        <ele>144</ele>
        <time>2020-10-17T15:16:27Z</time>
      </trkpt>
      <trkpt lat="43.6101" lon="1.07029">
        <ele>144</ele>
        <time>2020-10-17T15:16:33Z</time>
      </trkpt>
      <trkpt lat="43.60996" lon="1.07049">
        <ele>145</ele>
        <time>2020-10-17T15:16:49Z</time>
      </trkpt>
      <trkpt lat="43.60989" lon="1.07063">
        <ele>146</ele>
        <time>2020-10-17T15:16:59Z</time>
      </trkpt>
      <trkpt lat="43.60985" lon="1.07067">
        <ele>146</ele>
        <time>2020-10-17T15:17:03Z</time>
      </trkpt>
      <trkpt lat="43.60979" lon="1.07072">
        <ele>146</ele>
        <time>2020-10-17T15:17:09Z</time>
      </trkpt>
      <trkpt lat="43.6097" lon="1.07073">
        <ele>146</ele>
        <time>2020-10-17T15:17:16Z</time>
      </trkpt>
      <trkpt lat="43.60959" lon="1.0707">
        <ele>146</ele>
        <time>2020-10-17T15:17:25Z</time>
      </trkpt>
      <trkpt lat="43.60952" lon="1.07064">
        <ele>146</ele>
        <time>2020-10-17T15:17:32Z</time>
      </trkpt>
      <trkpt lat="43.60913" lon="1.07012">
        <ele>144</ele>
        <time>2020-10-17T15:18:15Z</time>
      </trkpt>
      <trkpt lat="43.60901" lon="1.07">
        <ele>144</ele>
        <time>2020-10-17T15:18:27Z</time>
      </trkpt>
      <trkpt lat="43.60862" lon="1.0698">
        <ele>145</ele>
        <time>2020-10-17T15:19:00Z</time>
      </trkpt>
      <trkpt lat="43.6082" lon="1.0695">
        <ele>146</ele>
        <time>2020-10-17T15:19:38Z</time>
      </trkpt>
      <trkpt lat="43.60819" lon="1.06953">
        <ele>146</ele>
        <time>2020-10-17T15:19:40Z</time>
      </trkpt>
      <trkpt lat="43.60814" lon="1.06965">
        <ele>146</ele>
        <time>2020-10-17T15:19:48Z</time>
      </trkpt>
      <trkpt lat="43.60812" lon="1.0697">
        <ele>146</ele>
        <time>2020-10-17T15:19:51Z</time>
      </trkpt>
      <trkpt lat="43.60805" lon="1.0698">
        <ele>146</ele>
        <time>2020-10-17T15:19:59Z</time>
      </trkpt>
      <trkpt lat="43.60792" lon="1.06992">
        <ele>146</ele>
        <time>2020-10-17T15:20:12Z</time>
      </trkpt>
      <trkpt lat="43.60781" lon="1.06999">
        <ele>145</ele>
        <time>2020-10-17T15:20:22Z</time>
      </trkpt>
      <trkpt lat="43.60773" lon="1.07005">
        <ele>145</ele>
        <time>2020-10-17T15:20:29Z</time>
      </trkpt>
      <trkpt lat="43.60758" lon="1.0699">
        <ele>145</ele>
        <time>2020-10-17T15:20:44Z</time>
      </trkpt>
      <trkpt lat="43.60744" lon="1.06993">
        <ele>145</ele>
        <time>2020-10-17T15:20:55Z</time>
      </trkpt>
      <trkpt lat="43.60717" lon="1.06991">
        <ele>145</ele>
        <time>2020-10-17T15:21:17Z</time>
      </trkpt>
      <trkpt lat="43.60695" lon="1.06973">
        <ele>144</ele>
        <time>2020-10-17T15:21:37Z</time>
      </trkpt>
      <trkpt lat="43.60676" lon="1.06948">
        <ele>144</ele>
        <time>2020-10-17T15:21:58Z</time>
      </trkpt>
      <trkpt lat="43.60659" lon="1.06914">
        <ele>143</ele>
        <time>2020-10-17T15:22:22Z</time>
      </trkpt>
      <trkpt lat="43.60653" lon="1.06878">
        <ele>145</ele>
        <time>2020-10-17T15:22:43Z</time>
      </trkpt>
      <trkpt lat="43.60655" lon="1.06825">
        <ele>146</ele>
        <time>2020-10-17T15:23:14Z</time>
      </trkpt>
      <trkpt lat="43.60662" lon="1.06767">
        <ele>148</ele>
        <time>2020-10-17T15:23:48Z</time>
      </trkpt>
      <trkpt lat="43.60662" lon="1.06752">
        <ele>148</ele>
        <time>2020-10-17T15:23:57Z</time>
      </trkpt>
      <trkpt lat="43.60623" lon="1.06732">
        <ele>147</ele>
        <time>2020-10-17T15:24:30Z</time>
      </trkpt>
      <trkpt lat="43.60625" lon="1.06698">
        <ele>146</ele>
        <time>2020-10-17T15:24:50Z</time>
      </trkpt>
      <trkpt lat="43.60623" lon="1.06655">
        <ele>145</ele>
        <time>2020-10-17T15:25:15Z</time>
      </trkpt>
      <trkpt lat="43.60551" lon="1.06567">
        <ele>144</ele>
        <time>2020-10-17T15:26:32Z</time>
      </trkpt>
      <trkpt lat="43.60523" lon="1.06505">
        <ele>143</ele>
        <time>2020-10-17T15:27:14Z</time>
      </trkpt>
      <trkpt lat="43.60496" lon="1.06432">
        <ele>144</ele>
        <time>2020-10-17T15:28:02Z</time>
      </trkpt>
      <trkpt lat="43.60441" lon="1.06334">
        <ele>145</ele>
        <time>2020-10-17T15:29:14Z</time>
      </trkpt>
      <trkpt lat="43.60402" lon="1.06286">
        <ele>143</ele>
        <time>2020-10-17T15:29:56Z</time>
      </trkpt>
      <trkpt lat="43.60348" lon="1.06239">
        <ele>142</ele>
        <time>2020-10-17T15:30:47Z</time>
      </trkpt>
      <trkpt lat="43.60255" lon="1.06124">
        <ele>144</ele>
        <time>2020-10-17T15:32:27Z</time>
      </trkpt>
      <trkpt lat="43.60248" lon="1.06116">
        <ele>144</ele>
        <time>2020-10-17T15:32:34Z</time>
      </trkpt>
      <trkpt lat="43.60214" lon="1.06077">
        <ele>143.9</ele>
      </trkpt>
      <trkpt lat="43.60184" lon="1.06057">
        <ele>143.7</ele>
      </trkpt>
      <trkpt lat="43.6014" lon="1.06002">
        <ele>143.3</ele>
      </trkpt>
      <trkpt lat="43.60035" lon="1.05869">
        <ele>144.4</ele>
      </trkpt>
      <trkpt lat="43.5995" lon="1.05765">
        <ele>144</ele>
      </trkpt>
      <trkpt lat="43.59937" lon="1.05753">
        <ele>144</ele>
      </trkpt>
      <trkpt lat="43.59865" lon="1.05695">
        <ele>144.7</ele>
      </trkpt>
      <trkpt lat="43.5979" lon="1.05572">
        <ele>144.8</ele>
      </trkpt>
      <trkpt lat="43.59697" lon="1.05579">
        <ele>144.4</ele>
      </trkpt>
      <trkpt lat="43.59606" lon="1.05599">
        <ele>145.7</ele>
      </trkpt>
      <trkpt lat="43.59556" lon="1.05555">
        <ele>146.3</ele>
      </trkpt>
      <trkpt lat="43.59527" lon="1.05482">
        <ele>145.6</ele>
      </trkpt>
      <trkpt lat="43.59481" lon="1.05409">
        <ele>145.8</ele>
      </trkpt>
      <trkpt lat="43.59392" lon="1.05365">
        <ele>146.2</ele>
      </trkpt>
      <trkpt lat="43.59327" lon="1.05276">
        <ele>146.4</ele>
      </trkpt>
      <trkpt lat="43.59302" lon="1.05235">
        <ele>147.3</ele>
      </trkpt>
      <trkpt lat="43.59215" lon="1.05093">
        <ele>147</ele>
      </trkpt>
      <trkpt lat="43.59161" lon="1.05001">
        <ele>145.9</ele>
      </trkpt>
      <trkpt lat="43.58991" lon="1.05322">
        <ele>148.9</ele>
      </trkpt>
      <trkpt lat="43.58964" lon="1.05375">
        <ele>151.6</ele>
      </trkpt>
      <trkpt lat="43.58962" lon="1.05377">
        <ele>151.8</ele>
      </trkpt>
      <trkpt lat="43.58887" lon="1.05674">
        <ele>178.2</ele>
      </trkpt>
      <trkpt lat="43.58869" lon="1.05747">
        <ele>183.4</ele>
      </trkpt>
      <trkpt lat="43.58812" lon="1.05977">
        <ele>182.8</ele>
      </trkpt>
      <trkpt lat="43.58799" lon="1.05993">
        <ele>182.3</ele>
      </trkpt>
      <trkpt lat="43.58789" lon="1.06012">
        <ele>181.7</ele>
      </trkpt>
      <trkpt lat="43.58654" lon="1.06372">
        <ele>186.2</ele>
      </trkpt>
      <trkpt lat="43.58593" lon="1.06648">
        <ele>191.2</ele>
      </trkpt>
      <trkpt lat="43.58567" lon="1.06773">
        <ele>193.2</ele>
      </trkpt>
      <trkpt lat="43.58559" lon="1.06886">
        <ele>194.6</ele>
      </trkpt>
      <trkpt lat="43.58542" lon="1.06998">
        <ele>194.5</ele>
      </trkpt>
      <trkpt lat="43.58521" lon="1.07076">
        <ele>194.1</ele>
      </trkpt>
      <trkpt lat="43.58497" lon="1.07155">
        <ele>194.8</ele>
      </trkpt>
      <trkpt lat="43.58475" lon="1.07138">
        <ele>193.2</ele>
      </trkpt>
      <trkpt lat="43.58433" lon="1.07106">
        <ele>190.2</ele>
      </trkpt>
      <trkpt lat="43.58391" lon="1.07066">
        <ele>185.7</ele>
      </trkpt>
      <trkpt lat="43.58306" lon="1.07005">
        <ele>175.5</ele>
      </trkpt>
      <trkpt lat="43.58216" lon="1.0695">
        <ele>169.5</ele>
      </trkpt>
      <trkpt lat="43.58209" lon="1.06945">
        <ele>169.7</ele>
      </trkpt>
      <trkpt lat="43.58057" lon="1.06845">
        <ele>180.5</ele>
      </trkpt>
      <trkpt lat="43.5804" lon="1.06834">
        <ele>181.1</ele>
      </trkpt>
      <trkpt lat="43.57913" lon="1.06751">
        <ele>190.9</ele>
      </trkpt>
      <trkpt lat="43.57865" lon="1.06717">
        <ele>188.4</ele>
      </trkpt>
      <trkpt lat="43.57842" lon="1.06711">
        <ele>187.1</ele>
      </trkpt>
      <trkpt lat="43.57773" lon="1.06712">
        <ele>184.1</ele>
      </trkpt>
      <trkpt lat="43.5776" lon="1.0671">
        <ele>183.5</ele>
      </trkpt>
      <trkpt lat="43.57747" lon="1.06703">
        <ele>183.1</ele>
      </trkpt>
      <trkpt lat="43.57727" lon="1.06686">
        <ele>184</ele>
      </trkpt>
      <trkpt lat="43.5768" lon="1.06657">
        <ele>187.2</ele>
      </trkpt>
      <trkpt lat="43.57671" lon="1.0665">
        <ele>188.1</ele>
      </trkpt>
      <trkpt lat="43.57657" lon="1.06617">
        <ele>189.8</ele>
      </trkpt>
      <trkpt lat="43.57639" lon="1.06579">
        <ele>191.6</ele>
      </trkpt>
      <trkpt lat="43.57617" lon="1.0655">
        <ele>192.7</ele>
      </trkpt>
      <trkpt lat="43.57587" lon="1.06522">
        <ele>194.1</ele>
      </trkpt>
      <trkpt lat="43.57569" lon="1.065">
        <ele>193.1</ele>
      </trkpt>
      <trkpt lat="43.5755" lon="1.06463">
        <ele>191</ele>
      </trkpt>
      <trkpt lat="43.57539" lon="1.06432">
        <ele>189.8</ele>
      </trkpt>
      <trkpt lat="43.57527" lon="1.06393">
        <ele>188.2</ele>
      </trkpt>
      <trkpt lat="43.57518" lon="1.06374">
        <ele>187.6</ele>
      </trkpt>
      <trkpt lat="43.57501" lon="1.06343">
        <ele>187.1</ele>
      </trkpt>
      <trkpt lat="43.5745" lon="1.0618">
        <ele>195.8</ele>
      </trkpt>
      <trkpt lat="43.57452" lon="1.06168">
        <ele>196.4</ele>
      </trkpt>
      <trkpt lat="43.57446" lon="1.06163">
        <ele>197</ele>
      </trkpt>
      <trkpt lat="43.57428" lon="1.06092">
        <ele>200.8</ele>
      </trkpt>
      <trkpt lat="43.57429" lon="1.06081">
        <ele>200.9</ele>
      </trkpt>
      <trkpt lat="43.57422" lon="1.06045">
        <ele>200.3</ele>
      </trkpt>
      <trkpt lat="43.57415" lon="1.06029">
        <ele>200.1</ele>
      </trkpt>
      <trkpt lat="43.5737" lon="1.05971">
        <ele>202.2</ele>
      </trkpt>
      <trkpt lat="43.57336" lon="1.05933">
        <ele>204.8</ele>
      </trkpt>
      <trkpt lat="43.57317" lon="1.05913">
        <ele>206.8</ele>
      </trkpt>
      <trkpt lat="43.57292" lon="1.05895">
        <ele>209.1</ele>
      </trkpt>
      <trkpt lat="43.57246" lon="1.05875">
        <ele>212</ele>
      </trkpt>
      <trkpt lat="43.57236" lon="1.05874">
        <ele>211.9</ele>
      </trkpt>
      <trkpt lat="43.57206" lon="1.05883">
        <ele>212.1</ele>
      </trkpt>
      <trkpt lat="43.57197" lon="1.05882">
        <ele>212</ele>
      </trkpt>
      <trkpt lat="43.57141" lon="1.05875">
        <ele>208</ele>
      </trkpt>
      <trkpt lat="43.57022" lon="1.05854">
        <ele>192.9</ele>
      </trkpt>
      <trkpt lat="43.56947" lon="1.05832">
        <ele>183.3</ele>
      </trkpt>
      <trkpt lat="43.56905" lon="1.05822">
        <ele>178.7</ele>
      </trkpt>
      <trkpt lat="43.5686" lon="1.05786">
        <ele>178</ele>
        <time>2020-10-17T16:38:15Z</time>
      </trkpt>
      <trkpt lat="43.56851" lon="1.05783">
        <ele>177</ele>
        <time>2020-10-17T16:38:22Z</time>
      </trkpt>
      <trkpt lat="43.56815" lon="1.05778">
        <ele>178</ele>
        <time>2020-10-17T16:38:51Z</time>
      </trkpt>
      <trkpt lat="43.5678" lon="1.05775">
        <ele>180</ele>
        <time>2020-10-17T16:39:19Z</time>
      </trkpt>
      <trkpt lat="43.56715" lon="1.05756">
        <ele>185</ele>
        <time>2020-10-17T16:40:12Z</time>
      </trkpt>
      <trkpt lat="43.56681" lon="1.05742">
        <ele>188</ele>
        <time>2020-10-17T16:40:41Z</time>
      </trkpt>
      <trkpt lat="43.56647" lon="1.05739">
        <ele>187</ele>
        <time>2020-10-17T16:41:08Z</time>
      </trkpt>
      <trkpt lat="43.56636" lon="1.05739">
        <ele>187</ele>
        <time>2020-10-17T16:41:17Z</time>
      </trkpt>
      <trkpt lat="43.56625" lon="1.05748">
        <ele>186</ele>
        <time>2020-10-17T16:41:27Z</time>
      </trkpt>
      <trkpt lat="43.566" lon="1.0578">
        <ele>187</ele>
        <time>2020-10-17T16:41:54Z</time>
      </trkpt>
      <trkpt lat="43.56591" lon="1.05765">
        <ele>186</ele>
        <time>2020-10-17T16:42:06Z</time>
      </trkpt>
      <trkpt lat="43.56585" lon="1.05762">
        <ele>185</ele>
        <time>2020-10-17T16:42:11Z</time>
      </trkpt>
      <trkpt lat="43.56579" lon="1.05763">
        <ele>185</ele>
        <time>2020-10-17T16:42:16Z</time>
      </trkpt>
      <trkpt lat="43.56574" lon="1.05766">
        <ele>184</ele>
        <time>2020-10-17T16:42:20Z</time>
      </trkpt>
      <trkpt lat="43.5653" lon="1.0581">
        <ele>182</ele>
        <time>2020-10-17T16:43:04Z</time>
      </trkpt>
      <trkpt lat="43.56527" lon="1.05818">
        <ele>182</ele>
        <time>2020-10-17T16:43:09Z</time>
      </trkpt>
      <trkpt lat="43.56526" lon="1.05829">
        <ele>183</ele>
        <time>2020-10-17T16:43:15Z</time>
      </trkpt>
      <trkpt lat="43.56531" lon="1.05839">
        <ele>185</ele>
        <time>2020-10-17T16:43:22Z</time>
      </trkpt>
      <trkpt lat="43.5652" lon="1.05847">
        <ele>184</ele>
        <time>2020-10-17T16:43:32Z</time>
      </trkpt>
      <trkpt lat="43.56507" lon="1.05857">
        <ele>183</ele>
        <time>2020-10-17T16:43:44Z</time>
      </trkpt>
      <trkpt lat="43.56499" lon="1.05868">
        <ele>184</ele>
        <time>2020-10-17T16:43:53Z</time>
      </trkpt>
      <trkpt lat="43.5647" lon="1.05927">
        <ele>184</ele>
        <time>2020-10-17T16:44:35Z</time>
      </trkpt>
      <trkpt lat="43.56448" lon="1.05965">
        <ele>182</ele>
        <time>2020-10-17T16:45:03Z</time>
      </trkpt>
      <trkpt lat="43.56442" lon="1.05974">
        <ele>181</ele>
        <time>2020-10-17T16:45:10Z</time>
      </trkpt>
      <trkpt lat="43.56421" lon="1.05995">
        <ele>178</ele>
        <time>2020-10-17T16:45:31Z</time>
      </trkpt>
      <trkpt lat="43.56359" lon="1.06038">
        <ele>176</ele>
        <time>2020-10-17T16:46:26Z</time>
      </trkpt>
      <trkpt lat="43.5633" lon="1.06054">
        <ele>174</ele>
        <time>2020-10-17T16:46:51Z</time>
      </trkpt>
      <trkpt lat="43.56304" lon="1.06021">
        <ele>171</ele>
        <time>2020-10-17T16:47:19Z</time>
      </trkpt>
      <trkpt lat="43.56277" lon="1.05991">
        <ele>171</ele>
        <time>2020-10-17T16:47:47Z</time>
      </trkpt>
      <trkpt lat="43.56196" lon="1.05926">
        <ele>176</ele>
        <time>2020-10-17T16:49:02Z</time>
      </trkpt>
      <trkpt lat="43.56139" lon="1.05919">
        <ele>182</ele>
        <time>2020-10-17T16:49:48Z</time>
      </trkpt>
      <trkpt lat="43.55933" lon="1.05883">
        <ele>193</ele>
        <time>2020-10-17T16:52:34Z</time>
      </trkpt>
      <trkpt lat="43.5571" lon="1.05854">
        <ele>203</ele>
        <time>2020-10-17T16:55:34Z</time>
      </trkpt>
      <trkpt lat="43.55613" lon="1.05845">
        <ele>208</ele>
        <time>2020-10-17T16:56:52Z</time>
      </trkpt>
      <trkpt lat="43.55411" lon="1.05846">
        <ele>224</ele>
        <time>2020-10-17T16:59:33Z</time>
      </trkpt>
      <trkpt lat="43.55386" lon="1.05857">
        <ele>222</ele>
        <time>2020-10-17T16:59:54Z</time>
      </trkpt>
      <trkpt lat="43.55374" lon="1.05878">
        <ele>221</ele>
        <time>2020-10-17T17:00:10Z</time>
      </trkpt>
      <trkpt lat="43.55344" lon="1.06106">
        <ele>220</ele>
        <time>2020-10-17T17:02:24Z</time>
      </trkpt>
      <trkpt lat="43.55342" lon="1.06179">
        <ele>222</ele>
        <time>2020-10-17T17:03:07Z</time>
      </trkpt>
      <trkpt lat="43.55339" lon="1.06219">
        <ele>222</ele>
        <time>2020-10-17T17:03:30Z</time>
      </trkpt>
      <trkpt lat="43.55336" lon="1.06241">
        <ele>222</ele>
        <time>2020-10-17T17:03:43Z</time>
      </trkpt>
      <trkpt lat="43.55331" lon="1.06261">
        <ele>222</ele>
        <time>2020-10-17T17:03:55Z</time>
      </trkpt>
      <trkpt lat="43.55325" lon="1.06271">
        <ele>222</ele>
        <time>2020-10-17T17:04:03Z</time>
      </trkpt>
      <trkpt lat="43.55317" lon="1.06282">
        <ele>222</ele>
        <time>2020-10-17T17:04:12Z</time>
      </trkpt>
      <trkpt lat="43.55262" lon="1.06332">
        <ele>225</ele>
        <time>2020-10-17T17:05:05Z</time>
      </trkpt>
      <trkpt lat="43.55159" lon="1.06431">
        <ele>213</ele>
        <time>2020-10-17T17:06:45Z</time>
      </trkpt>
      <trkpt lat="43.55123" lon="1.06438">
        <ele>208</ele>
        <time>2020-10-17T17:07:14Z</time>
      </trkpt>
      <trkpt lat="43.55113" lon="1.06433">
        <ele>207</ele>
        <time>2020-10-17T17:07:23Z</time>
      </trkpt>
      <trkpt lat="43.55069" lon="1.06412">
        <ele>201</ele>
        <time>2020-10-17T17:08:00Z</time>
      </trkpt>
      <trkpt lat="43.54996" lon="1.06351">
        <ele>191</ele>
        <time>2020-10-17T17:09:08Z</time>
      </trkpt>
      <trkpt lat="43.5493" lon="1.06272">
        <ele>183</ele>
        <time>2020-10-17T17:10:18Z</time>
      </trkpt>
      <trkpt lat="43.54911" lon="1.06241">
        <ele>181</ele>
        <time>2020-10-17T17:10:42Z</time>
      </trkpt>
      <trkpt lat="43.54892" lon="1.06204">
        <ele>180</ele>
        <time>2020-10-17T17:11:08Z</time>
      </trkpt>
      <trkpt lat="43.54866" lon="1.06154">
        <ele>179</ele>
        <time>2020-10-17T17:11:44Z</time>
      </trkpt>
      <trkpt lat="43.54861" lon="1.06146">
        <ele>179</ele>
        <time>2020-10-17T17:11:50Z</time>
      </trkpt>
      <trkpt lat="43.54856" lon="1.06141">
        <ele>180</ele>
        <time>2020-10-17T17:11:55Z</time>
      </trkpt>
      <trkpt lat="43.54813" lon="1.06134">
        <ele>181</ele>
        <time>2020-10-17T17:12:30Z</time>
      </trkpt>
      <trkpt lat="43.54635" lon="1.06101">
        <ele>195</ele>
        <time>2020-10-17T17:14:53Z</time>
      </trkpt>
      <trkpt lat="43.54314" lon="1.06109">
        <ele>221</ele>
        <time>2020-10-17T17:19:10Z</time>
      </trkpt>
      <trkpt lat="43.54369" lon="1.05885">
        <ele>221</ele>
        <time>2020-10-17T17:21:28Z</time>
      </trkpt>
      <trkpt lat="43.54403" lon="1.056">
        <ele>217</ele>
        <time>2020-10-17T17:24:15Z</time>
      </trkpt>
      <trkpt lat="43.5441" lon="1.05521">
        <ele>216</ele>
        <time>2020-10-17T17:25:02Z</time>
      </trkpt>
      <trkpt lat="43.5442" lon="1.05398">
        <ele>216</ele>
        <time>2020-10-17T17:26:13Z</time>
      </trkpt>
      <trkpt lat="43.5442" lon="1.05347">
        <ele>216</ele>
        <time>2020-10-17T17:26:43Z</time>
      </trkpt>
      <trkpt lat="43.54414" lon="1.05322">
        <ele>216</ele>
        <time>2020-10-17T17:26:58Z</time>
      </trkpt>
      <trkpt lat="43.54412" lon="1.05314">
        <ele>215</ele>
        <time>2020-10-17T17:27:03Z</time>
      </trkpt>
      <trkpt lat="43.54113" lon="1.04784">
        <ele>172</ele>
        <time>2020-10-17T17:33:33Z</time>
      </trkpt>
      <trkpt lat="43.541" lon="1.04753">
        <ele>171</ele>
        <time>2020-10-17T17:33:54Z</time>
      </trkpt>
      <trkpt lat="43.541" lon="1.04717">
        <ele>169</ele>
        <time>2020-10-17T17:34:15Z</time>
      </trkpt>
      <trkpt lat="43.54106" lon="1.04664">
        <ele>167</ele>
        <time>2020-10-17T17:34:46Z</time>
      </trkpt>
      <trkpt lat="43.54108" lon="1.04652">
        <ele>167</ele>
        <time>2020-10-17T17:34:53Z</time>
      </trkpt>
      <trkpt lat="43.54107" lon="1.04638">
        <ele>167</ele>
        <time>2020-10-17T17:35:01Z</time>
      </trkpt>
      <trkpt lat="43.54109" lon="1.046">
        <ele>167</ele>
        <time>2020-10-17T17:35:23Z</time>
      </trkpt>
      <trkpt lat="43.54096" lon="1.04607">
        <ele>168</ele>
        <time>2020-10-17T17:35:34Z</time>
      </trkpt>
      <trkpt lat="43.54057" lon="1.04636">
        <ele>168</ele>
        <time>2020-10-17T17:36:10Z</time>
      </trkpt>
      <trkpt lat="43.53988" lon="1.04712">
        <ele>169</ele>
        <time>2020-10-17T17:37:21Z</time>
      </trkpt>
      <trkpt lat="43.53966" lon="1.04726">
        <ele>169</ele>
        <time>2020-10-17T17:37:40Z</time>
      </trkpt>
      <trkpt lat="43.53861" lon="1.04759">
        <ele>171</ele>
        <time>2020-10-17T17:39:06Z</time>
      </trkpt>
      <trkpt lat="43.53719" lon="1.04814">
        <ele>183</ele>
        <time>2020-10-17T17:41:04Z</time>
      </trkpt>
      <trkpt lat="43.5361" lon="1.04874">
        <ele>190</ele>
        <time>2020-10-17T17:42:38Z</time>
      </trkpt>
      <trkpt lat="43.53586" lon="1.04891">
        <ele>192</ele>
        <time>2020-10-17T17:43:00Z</time>
      </trkpt>
      <trkpt lat="43.53564" lon="1.04911">
        <ele>193</ele>
        <time>2020-10-17T17:43:21Z</time>
      </trkpt>
      <trkpt lat="43.53494" lon="1.05075">
        <ele>199</ele>
        <time>2020-10-17T17:45:11Z</time>
      </trkpt>
      <trkpt lat="43.53449" lon="1.0516">
        <ele>200</ele>
        <time>2020-10-17T17:46:12Z</time>
      </trkpt>
      <trkpt lat="43.5342" lon="1.052">
        <ele>201</ele>
        <time>2020-10-17T17:46:45Z</time>
      </trkpt>
      <trkpt lat="43.53198" lon="1.05402">
        <ele>214</ele>
        <time>2020-10-17T17:50:18Z</time>
      </trkpt>
      <trkpt lat="43.53077" lon="1.05567">
        <ele>222</ele>
        <time>2020-10-17T17:52:34Z</time>
      </trkpt>
      <trkpt lat="43.53046" lon="1.05615">
        <ele>219</ele>
        <time>2020-10-17T17:53:12Z</time>
      </trkpt>
      <trkpt lat="43.5304" lon="1.05642">
        <ele>219</ele>
        <time>2020-10-17T17:53:28Z</time>
      </trkpt>
      <trkpt lat="43.53016" lon="1.05685">
        <ele>221</ele>
        <time>2020-10-17T17:54:00Z</time>
      </trkpt>
      <trkpt lat="43.52973" lon="1.05751">
        <ele>225</ele>
        <time>2020-10-17T17:54:51Z</time>
      </trkpt>
      <trkpt lat="43.52927" lon="1.05842">
        <ele>228</ele>
        <time>2020-10-17T17:55:56Z</time>
      </trkpt>
      <trkpt lat="43.52881" lon="1.05929">
        <ele>226</ele>
        <time>2020-10-17T17:56:58Z</time>
      </trkpt>
      <trkpt lat="43.52864" lon="1.05987">
        <ele>224</ele>
        <time>2020-10-17T17:57:34Z</time>
      </trkpt>
      <trkpt lat="43.52841" lon="1.06116">
        <ele>225</ele>
        <time>2020-10-17T17:58:52Z</time>
      </trkpt>
      <trkpt lat="43.52815" lon="1.06244">
        <ele>222</ele>
        <time>2020-10-17T18:00:09Z</time>
      </trkpt>
      <trkpt lat="43.52791" lon="1.0634">
        <ele>223</ele>
        <time>2020-10-17T18:01:08Z</time>
      </trkpt>
      <trkpt lat="43.52749" lon="1.06487">
        <ele>228</ele>
        <time>2020-10-17T18:02:39Z</time>
      </trkpt>
      <trkpt lat="43.52645" lon="1.06781">
        <ele>237</ele>
        <time>2020-10-17T18:05:49Z</time>
      </trkpt>
      <trkpt lat="43.52633" lon="1.06833">
        <ele>237</ele>
        <time>2020-10-17T18:06:21Z</time>
      </trkpt>
      <trkpt lat="43.5263" lon="1.0687">
        <ele>237</ele>
        <time>2020-10-17T18:06:43Z</time>
      </trkpt>
      <trkpt lat="43.52632" lon="1.06922">
        <ele>239</ele>
        <time>2020-10-17T18:07:13Z</time>
      </trkpt>
      <trkpt lat="43.52654" lon="1.07039">
        <ele>242</ele>
        <time>2020-10-17T18:08:23Z</time>
      </trkpt>
      <trkpt lat="43.52675" lon="1.07199">
        <ele>246</ele>
        <time>2020-10-17T18:09:57Z</time>
      </trkpt>
      <trkpt lat="43.5269" lon="1.07331">
        <ele>245</ele>
        <time>2020-10-17T18:11:15Z</time>
      </trkpt>
      <trkpt lat="43.52694" lon="1.07575">
        <ele>248</ele>
        <time>2020-10-17T18:13:37Z</time>
      </trkpt>
      <trkpt lat="43.52694" lon="1.07657">
        <ele>252</ele>
        <time>2020-10-17T18:14:24Z</time>
      </trkpt>
      <trkpt lat="43.52704" lon="1.07767">
        <ele>256</ele>
        <time>2020-10-17T18:15:29Z</time>
      </trkpt>
      <trkpt lat="43.52703" lon="1.0779">
        <ele>256</ele>
        <time>2020-10-17T18:15:42Z</time>
      </trkpt>
      <trkpt lat="43.52695" lon="1.07857">
        <ele>257</ele>
        <time>2020-10-17T18:16:21Z</time>
      </trkpt>
      <trkpt lat="43.52694" lon="1.07946">
        <ele>261</ele>
        <time>2020-10-17T18:17:13Z</time>
      </trkpt>
      <trkpt lat="43.52689" lon="1.07976">
        <ele>262</ele>
        <time>2020-10-17T18:17:31Z</time>
      </trkpt>
      <trkpt lat="43.52676" lon="1.08008">
        <ele>265</ele>
        <time>2020-10-17T18:17:52Z</time>
      </trkpt>
      <trkpt lat="43.52658" lon="1.08034">
        <ele>267</ele>
        <time>2020-10-17T18:18:13Z</time>
      </trkpt>
      <trkpt lat="43.52587" lon="1.08128">
        <ele>275</ele>
        <time>2020-10-17T18:19:32Z</time>
      </trkpt>
      <trkpt lat="43.52574" lon="1.08153">
        <ele>278</ele>
        <time>2020-10-17T18:19:50Z</time>
      </trkpt>
      <trkpt lat="43.5256" lon="1.08186">
        <ele>279</ele>
        <time>2020-10-17T18:20:12Z</time>
      </trkpt>
      <trkpt lat="43.52544" lon="1.0822">
        <ele>280</ele>
        <time>2020-10-17T18:20:35Z</time>
      </trkpt>
      <trkpt lat="43.52528" lon="1.08247">
        <ele>279</ele>
        <time>2020-10-17T18:20:56Z</time>
      </trkpt>
      <trkpt lat="43.52499" lon="1.08325">
        <ele>287</ele>
        <time>2020-10-17T18:21:47Z</time>
      </trkpt>
      <trkpt lat="43.52492" lon="1.08358">
        <ele>290</ele>
        <time>2020-10-17T18:22:07Z</time>
      </trkpt>
      <trkpt lat="43.52485" lon="1.0846">
        <ele>296</ele>
        <time>2020-10-17T18:23:06Z</time>
      </trkpt>
      <trkpt lat="43.52452" lon="1.0876">
        <ele>311</ele>
        <time>2020-10-17T18:26:02Z</time>
      </trkpt>
      <trkpt lat="43.52453" lon="1.08764">
        <ele>311</ele>
        <time>2020-10-17T18:26:05Z</time>
      </trkpt>
      <trkpt lat="43.52301" lon="1.08781">
        <ele>315</ele>
        <time>2020-10-17T18:28:07Z</time>
      </trkpt>
      <trkpt lat="43.52257" lon="1.08776">
        <ele>317</ele>
        <time>2020-10-17T18:28:42Z</time>
      </trkpt>
      <trkpt lat="43.52212" lon="1.0876">
        <ele>318</ele>
        <time>2020-10-17T18:29:19Z</time>
      </trkpt>
      <trkpt lat="43.52095" lon="1.08687">
        <ele>319</ele>
        <time>2020-10-17T18:31:02Z</time>
      </trkpt>
      <trkpt lat="43.52037" lon="1.08656">
        <ele>318</ele>
        <time>2020-10-17T18:31:52Z</time>
      </trkpt>
      <trkpt lat="43.51915" lon="1.0861">
        <ele>318</ele>
        <time>2020-10-17T18:33:33Z</time>
      </trkpt>
      <trkpt lat="43.51864" lon="1.08574">
        <ele>318</ele>
        <time>2020-10-17T18:34:19Z</time>
      </trkpt>
      <trkpt lat="43.51861" lon="1.08589">
        <ele>318</ele>
        <time>2020-10-17T18:34:28Z</time>
      </trkpt>
      <trkpt lat="43.51857" lon="1.08664">
        <ele>320</ele>
        <time>2020-10-17T18:35:12Z</time>
      </trkpt>
      <trkpt lat="43.51848" lon="1.08736">
        <ele>319</ele>
        <time>2020-10-17T18:35:54Z</time>
      </trkpt>
      <trkpt lat="43.51802" lon="1.09003">
        <ele>317</ele>
        <time>2020-10-17T18:38:34Z</time>
      </trkpt>
      <trkpt lat="43.51792" lon="1.09118">
        <ele>315</ele>
        <time>2020-10-17T18:39:41Z</time>
      </trkpt>
      <trkpt lat="43.5179" lon="1.09235">
        <ele>314</ele>
        <time>2020-10-17T18:40:49Z</time>
      </trkpt>
      <trkpt lat="43.51796" lon="1.09438">
        <ele>312</ele>
        <time>2020-10-17T18:42:47Z</time>
      </trkpt>
      <trkpt lat="43.51792" lon="1.0957">
        <ele>311</ele>
        <time>2020-10-17T18:44:03Z</time>
      </trkpt>
      <trkpt lat="43.51773" lon="1.09845">
        <ele>308</ele>
        <time>2020-10-17T18:46:44Z</time>
      </trkpt>
      <trkpt lat="43.51773" lon="1.09928">
        <ele>307</ele>
        <time>2020-10-17T18:47:32Z</time>
      </trkpt>
      <trkpt lat="43.51778" lon="1.09955">
        <ele>306</ele>
        <time>2020-10-17T18:47:48Z</time>
      </trkpt>
      <trkpt lat="43.51785" lon="1.09977">
        <ele>306</ele>
        <time>2020-10-17T18:48:02Z</time>
      </trkpt>
      <trkpt lat="43.51818" lon="1.10022">
        <ele>306</ele>
        <time>2020-10-17T18:48:39Z</time>
      </trkpt>
      <trkpt lat="43.51825" lon="1.10044">
        <ele>306</ele>
        <time>2020-10-17T18:48:53Z</time>
      </trkpt>
      <trkpt lat="43.51831" lon="1.10076">
        <ele>306</ele>
        <time>2020-10-17T18:49:12Z</time>
      </trkpt>
      <trkpt lat="43.5184" lon="1.10168">
        <ele>309</ele>
        <time>2020-10-17T18:50:06Z</time>
      </trkpt>
      <trkpt lat="43.51857" lon="1.10284">
        <ele>304</ele>
        <time>2020-10-17T18:51:15Z</time>
      </trkpt>
      <trkpt lat="43.51869" lon="1.10309">
        <ele>303</ele>
        <time>2020-10-17T18:51:32Z</time>
      </trkpt>
      <trkpt lat="43.51951" lon="1.10437">
        <ele>294</ele>
        <time>2020-10-17T18:53:12Z</time>
      </trkpt>
      <trkpt lat="43.51976" lon="1.10471">
        <ele>290</ele>
        <time>2020-10-17T18:53:40Z</time>
      </trkpt>
      <trkpt lat="43.51992" lon="1.10503">
        <ele>289</ele>
        <time>2020-10-17T18:54:02Z</time>
      </trkpt>
      <trkpt lat="43.52037" lon="1.10655">
        <ele>275</ele>
        <time>2020-10-17T18:55:38Z</time>
      </trkpt>
      <trkpt lat="43.52057" lon="1.10742">
        <ele>272</ele>
        <time>2020-10-17T18:56:31Z</time>
      </trkpt>
      <trkpt lat="43.5211" lon="1.10927">
        <ele>267</ele>
        <time>2020-10-17T18:58:26Z</time>
      </trkpt>
      <trkpt lat="43.52209" lon="1.10873">
        <ele>273</ele>
        <time>2020-10-17T18:59:51Z</time>
      </trkpt>
      <trkpt lat="43.5222" lon="1.10829">
        <ele>275</ele>
        <time>2020-10-17T19:00:18Z</time>
      </trkpt>
      <trkpt lat="43.52292" lon="1.10818">
        <ele>282</ele>
        <time>2020-10-17T19:01:16Z</time>
      </trkpt>
      <trkpt lat="43.52339" lon="1.10818">
        <ele>287</ele>
        <time>2020-10-17T19:01:54Z</time>
      </trkpt>
      <trkpt lat="43.52352" lon="1.10814">
        <ele>289</ele>
        <time>2020-10-17T19:02:05Z</time>
      </trkpt>
      <trkpt lat="43.52363" lon="1.10805">
        <ele>290</ele>
        <time>2020-10-17T19:02:15Z</time>
      </trkpt>
      <trkpt lat="43.52395" lon="1.10764">
        <ele>295</ele>
        <time>2020-10-17T19:02:50Z</time>
      </trkpt>
      <trkpt lat="43.52408" lon="1.10737">
        <ele>297</ele>
        <time>2020-10-17T19:03:09Z</time>
      </trkpt>
      <trkpt lat="43.52425" lon="1.10742">
        <ele>300</ele>
        <time>2020-10-17T19:03:23Z</time>
      </trkpt>
      <trkpt lat="43.52434" lon="1.10738">
        <ele>301</ele>
        <time>2020-10-17T19:03:30Z</time>
      </trkpt>
      <trkpt lat="43.52459" lon="1.107">
        <ele>303</ele>
        <time>2020-10-17T19:04:00Z</time>
      </trkpt>
      <trkpt lat="43.52474" lon="1.10691">
        <ele>305</ele>
        <time>2020-10-17T19:04:13Z</time>
      </trkpt>
      <trkpt lat="43.52483" lon="1.1069">
        <ele>306</ele>
        <time>2020-10-17T19:04:20Z</time>
      </trkpt>
      <trkpt lat="43.52571" lon="1.10705">
        <ele>311</ele>
        <time>2020-10-17T19:05:31Z</time>
      </trkpt>
      <trkpt lat="43.52595" lon="1.10704">
        <ele>311</ele>
        <time>2020-10-17T19:05:51Z</time>
      </trkpt>
      <trkpt lat="43.52674" lon="1.10685">
        <ele>309</ele>
        <time>2020-10-17T19:06:55Z</time>
      </trkpt>
      <trkpt lat="43.5271" lon="1.10796">
        <ele>309</ele>
        <time>2020-10-17T19:08:05Z</time>
      </trkpt>
      <trkpt lat="43.5273" lon="1.10834">
        <ele>309</ele>
        <time>2020-10-17T19:08:33Z</time>
      </trkpt>
      <trkpt lat="43.52772" lon="1.10895">
        <ele>310</ele>
        <time>2020-10-17T19:09:21Z</time>
      </trkpt>
      <trkpt lat="43.52781" lon="1.10917">
        <ele>310</ele>
        <time>2020-10-17T19:09:36Z</time>
      </trkpt>
      <trkpt lat="43.52787" lon="1.10948">
        <ele>311</ele>
        <time>2020-10-17T19:09:55Z</time>
      </trkpt>
      <trkpt lat="43.52815" lon="1.10951">
        <ele>311</ele>
        <time>2020-10-17T19:10:17Z</time>
      </trkpt>
      <trkpt lat="43.52821" lon="1.10955">
        <ele>311</ele>
        <time>2020-10-17T19:10:23Z</time>
      </trkpt>
      <trkpt lat="43.52831" lon="1.10968">
        <ele>311</ele>
        <time>2020-10-17T19:10:34Z</time>
      </trkpt>
      <trkpt lat="43.52847" lon="1.11">
        <ele>312</ele>
        <time>2020-10-17T19:10:56Z</time>
      </trkpt>
      <trkpt lat="43.52902" lon="1.11143">
        <ele>311</ele>
        <time>2020-10-17T19:12:30Z</time>
      </trkpt>
      <trkpt lat="43.52939" lon="1.11243">
        <ele>309</ele>
        <time>2020-10-17T19:13:35Z</time>
      </trkpt>
      <trkpt lat="43.5294" lon="1.11261">
        <ele>309</ele>
        <time>2020-10-17T19:13:46Z</time>
      </trkpt>
      <trkpt lat="43.52946" lon="1.11265">
        <ele>309</ele>
        <time>2020-10-17T19:13:51Z</time>
      </trkpt>
      <trkpt lat="43.53032" lon="1.11468">
        <ele>304</ele>
        <time>2020-10-17T19:16:08Z</time>
      </trkpt>
      <trkpt lat="43.53085" lon="1.11603">
        <ele>307</ele>
        <time>2020-10-17T19:17:37Z</time>
      </trkpt>
      <trkpt lat="43.53227" lon="1.11795">
        <ele>304</ele>
        <time>2020-10-17T19:20:16Z</time>
      </trkpt>
      <trkpt lat="43.53244" lon="1.11948">
        <ele>302</ele>
        <time>2020-10-17T19:21:46Z</time>
      </trkpt>
      <trkpt lat="43.53262" lon="1.12031">
        <ele>299</ele>
        <time>2020-10-17T19:22:36Z</time>
      </trkpt>
      <trkpt lat="43.53273" lon="1.12116">
        <ele>298</ele>
        <time>2020-10-17T19:23:26Z</time>
      </trkpt>
      <trkpt lat="43.53284" lon="1.1228">
        <ele>300</ele>
        <time>2020-10-17T19:25:02Z</time>
      </trkpt>
      <trkpt lat="43.5328" lon="1.12355">
        <ele>303</ele>
        <time>2020-10-17T19:25:45Z</time>
      </trkpt>
      <trkpt lat="43.53298" lon="1.12462">
        <ele>307</ele>
        <time>2020-10-17T19:26:49Z</time>
      </trkpt>
      <trkpt lat="43.533" lon="1.12535">
        <ele>307</ele>
        <time>2020-10-17T19:27:32Z</time>
      </trkpt>
      <trkpt lat="43.53341" lon="1.12771">
        <ele>297</ele>
        <time>2020-10-17T19:29:52Z</time>
      </trkpt>
      <trkpt lat="43.53367" lon="1.12987">
        <ele>296</ele>
        <time>2020-10-17T19:32:00Z</time>
      </trkpt>
      <trkpt lat="43.53418" lon="1.13304">
        <ele>294</ele>
        <time>2020-10-17T19:35:08Z</time>
      </trkpt>
      <trkpt lat="43.53419" lon="1.13352">
        <ele>293</ele>
        <time>2020-10-17T19:35:36Z</time>
      </trkpt>
      <trkpt lat="43.53409" lon="1.13529">
        <ele>287</ele>
        <time>2020-10-17T19:37:19Z</time>
      </trkpt>
      <trkpt lat="43.53407" lon="1.13665">
        <ele>290</ele>
        <time>2020-10-17T19:38:38Z</time>
      </trkpt>
      <trkpt lat="43.53465" lon="1.14076">
        <ele>296</ele>
        <time>2020-10-17T19:42:41Z</time>
      </trkpt>
      <trkpt lat="43.53476" lon="1.14207">
        <ele>296</ele>
        <time>2020-10-17T19:43:57Z</time>
      </trkpt>
      <trkpt lat="43.53817" lon="1.14189">
        <ele>262</ele>
        <time>2020-10-17T19:48:31Z</time>
      </trkpt>
      <trkpt lat="43.53803" lon="1.14352">
        <ele>258</ele>
        <time>2020-10-17T19:50:06Z</time>
      </trkpt>
      <trkpt lat="43.53981" lon="1.14372">
        <ele>239</ele>
        <time>2020-10-17T19:52:29Z</time>
      </trkpt>
      <trkpt lat="43.54065" lon="1.14412">
        <ele>234</ele>
        <time>2020-10-17T19:53:40Z</time>
      </trkpt>
      <trkpt lat="43.54077" lon="1.14394">
        <ele>234</ele>
        <time>2020-10-17T19:53:54Z</time>
      </trkpt>
      <trkpt lat="43.54233" lon="1.14595">
        <ele>229</ele>
        <time>2020-10-17T19:56:45Z</time>
      </trkpt>
      <trkpt lat="43.54282" lon="1.14662">
        <ele>229</ele>
        <time>2020-10-17T19:57:40Z</time>
      </trkpt>
      <trkpt lat="43.54401" lon="1.14784">
        <ele>230</ele>
        <time>2020-10-17T19:59:39Z</time>
      </trkpt>
      <trkpt lat="43.54437" lon="1.14839">
        <ele>229</ele>
        <time>2020-10-17T20:00:22Z</time>
      </trkpt>
      <trkpt lat="43.54521" lon="1.15016">
        <ele>225</ele>
        <time>2020-10-17T20:02:25Z</time>
      </trkpt>
      <trkpt lat="43.54553" lon="1.15061">
        <ele>226</ele>
        <time>2020-10-17T20:03:02Z</time>
      </trkpt>
      <trkpt lat="43.54575" lon="1.1511">
        <ele>224</ele>
        <time>2020-10-17T20:03:35Z</time>
      </trkpt>
      <trkpt lat="43.54579" lon="1.15098">
        <ele>224</ele>
        <time>2020-10-17T20:03:43Z</time>
      </trkpt>
      <trkpt lat="43.54587" lon="1.15076">
        <ele>224</ele>
        <time>2020-10-17T20:03:57Z</time>
      </trkpt>
      <trkpt lat="43.54597" lon="1.15015">
        <ele>223</ele>
        <time>2020-10-17T20:04:33Z</time>
      </trkpt>
      <trkpt lat="43.54599" lon="1.15009">
        <ele>223</ele>
        <time>2020-10-17T20:04:37Z</time>
      </trkpt>
      <trkpt lat="43.54599" lon="1.15003">
        <ele>223</ele>
        <time>2020-10-17T20:04:41Z</time>
      </trkpt>
      <trkpt lat="43.54614" lon="1.14956">
        <ele>223</ele>
        <time>2020-10-17T20:05:10Z</time>
      </trkpt>
      <trkpt lat="43.54621" lon="1.14941">
        <ele>223</ele>
        <time>2020-10-17T20:05:21Z</time>
      </trkpt>
      <trkpt lat="43.54623" lon="1.14937">
        <ele>223</ele>
        <time>2020-10-17T20:05:24Z</time>
      </trkpt>
      <trkpt lat="43.54633" lon="1.14912">
        <ele>224</ele>
        <time>2020-10-17T20:05:40Z</time>
      </trkpt>
      <trkpt lat="43.54646" lon="1.14883">
        <ele>224</ele>
        <time>2020-10-17T20:06:00Z</time>
      </trkpt>
      <trkpt lat="43.54654" lon="1.14867">
        <ele>224</ele>
        <time>2020-10-17T20:06:11Z</time>
      </trkpt>
      <trkpt lat="43.54679" lon="1.14824">
        <ele>223</ele>
        <time>2020-10-17T20:06:43Z</time>
      </trkpt>
      <trkpt lat="43.54686" lon="1.14808">
        <ele>222</ele>
        <time>2020-10-17T20:06:54Z</time>
      </trkpt>
      <trkpt lat="43.54688" lon="1.14789">
        <ele>222</ele>
        <time>2020-10-17T20:07:05Z</time>
      </trkpt>
      <trkpt lat="43.54676" lon="1.14712">
        <ele>222</ele>
        <time>2020-10-17T20:07:51Z</time>
      </trkpt>
      <trkpt lat="43.54671" lon="1.14676">
        <ele>223</ele>
        <time>2020-10-17T20:08:12Z</time>
      </trkpt>
      <trkpt lat="43.54665" lon="1.14642">
        <ele>223</ele>
        <time>2020-10-17T20:08:32Z</time>
      </trkpt>
      <trkpt lat="43.54659" lon="1.14609">
        <ele>223</ele>
        <time>2020-10-17T20:08:52Z</time>
      </trkpt>
      <trkpt lat="43.54646" lon="1.14579">
        <ele>224</ele>
        <time>2020-10-17T20:09:12Z</time>
      </trkpt>
      <trkpt lat="43.54634" lon="1.14558">
        <ele>225</ele>
        <time>2020-10-17T20:09:28Z</time>
      </trkpt>
      <trkpt lat="43.54606" lon="1.14523">
        <ele>228</ele>
        <time>2020-10-17T20:09:58Z</time>
      </trkpt>
      <trkpt lat="43.54604" lon="1.14525">
        <ele>228</ele>
        <time>2020-10-17T20:10:00Z</time>
      </trkpt>
    </trkseg>
  </trk>
</gpx>